La Printanière
Par sexe
M
Erpent, 13/02/2016, BEL
Delhalle - 15.7km - Classement
15.7km 
Catégorie
PosNrNomAgeIOCLigueEquipeRéelTempsTkmMoy.RangNomScrPtsLocalité
1.989PAQUES BENOIT25BELRFCLSAUCONY54:1354:133:28 17.381sen11163BEAUFAYS
2.3805DURVIAUX RAPHAËL30BELWACOGUEPARD TEAM55:3655:363:33 16.952sen21140TILLIER
3.371PHILIPPE JEROME43BELURBANTRITEAM56:2956:293:36 16.681ve131124HOEILAART
4.2549PAQUET AMAURY25BELDE VALOIS - MJ SPORT57:5357:543:42 16.273sen41101CHARNEUX
5.2634MAHIA SEBASTIEN30BELWACORUN ATTITUDE58:0158:013:42 16.244sen51099NAMUR
6.2728THEUNIS GERT41BELFCHAASICS59:0159:033:46 15.962ve161083
7.3075D'HARVENG YVES26BELSTART-TODAY/URBANTRI59:1859:183:47 15.895sen71078SAINT-MARC
8.3575GOUBAU JOHAN29BELTRI4US59:5859:583:50 15.716sen81067
9.3900WIDART OLIVIER36BELMYRUN1:00:091:00:093:50 15.667sen91064ARBRE
10.2700BURTOMBOY GRÉGORY39BEL1:00:151:00:153:51 15.648sen101063DAVERDISSE
11.2603MLECZKO OLIVIER45BELJOGGING PLUS1:00:231:00:233:51 15.603ve1111060FLAWINNE
12.3506KEMPINAIRE JULIEN34BELARCH1:00:451:00:453:53 15.519sen121054
13.2620OUMAROU YAHAYA29BELCSFMYSTERE1:01:441:01:443:56 15.2610sen131039ANDERLECHT
14.238VAN DEN ABEELE SEBASTIAN46BELACLO1:01:491:01:503:57 15.244ve1141037CARNIERES
15.2637CHERPION STEVE29BELBLACKBIRD1:01:581:01:593:57 15.2011sen151035
16.2695DALAIDEN QUENTIN23BELCCCTRI1:02:041:02:063:58 15.1712sen161033
17.2702DEMARS MAXIME28BELJCCS1:02:161:02:173:59 15.1313sen171030
18.2694DO,DUY THIEN23BELETC1:02:291:02:303:59 15.0714sen181026
19.2636DELMEE GILLES31BELSMAC1:03:331:03:334:03 14.8215sen191010
20.2673DENIS ROMAIN32BELTRIHUS1:03:481:03:494:04 14.7616sen201006MEUX
21.913BOUGHRAD MOHAMED36BELCSFKALENJI TEAM1:03:561:03:574:05 14.7317sen211004BRUXELLES
22.2548DEMIRKAZAN MIKAIL23TURGOKUSSJA1:03:461:04:014:05 14.7218sen221006HERVE
23.3384MEUL WIM33BELVOLH1:04:121:04:134:06 14.6719sen231000BEVEREN
24.3275LEKEU FRÉDÉRIC35BELHUY1:04:351:04:384:07 14.5820sen24994WANZE
25.2633MEUNIER GERARD58BEL1:04:401:04:414:08 14.571ve225992
26.338HEUNINCK ALEXANDRE27BEL1:04:421:04:464:08 14.5521sen26991BRUXELLES
27.3564MORREN JEREMY26BELRIWARIWA1:04:451:04:504:08 14.5322sen27990
28.3887VAN DEN BRANDEN BENOÎT41BEL1:04:491:04:554:09 14.515ve128989NAMUR
29.3026IWENS ALAIN52BELHOOIBERGLOPERS1:04:591:05:004:09 14.492ve229987HAACHT
30.3839THONET JEAN-BAPTISTE26BELARCH1:05:001:05:034:09 14.4823sen30986HAMOIS
31.3840REGNIER PIERRE40BEL1:05:141:05:164:10 14.436ve131983LIEGE
32.825PACQUET DOMINIQUE51BELACLO1:05:211:05:244:10 14.403ve232981MERBES SAINTE MARIE
33.3831DELCHAMBRE FRÉDÉRIC43BELTRANSITION SPORTS1:05:381:05:414:11 14.357ve133976WANZE
34.3188GOUBAU COLIN31BELBTC1:05:551:05:554:12 14.2924sen34972BRUXELLES
35.524CHARLIER ALAIN46BELSMAC1:05:581:06:014:13 14.278ve135971BOUGE
36.2536HARDY ERIC54BEL1:06:081:06:084:13 14.254ve236968SALLES
37.2625PIRON JULIEN30BELTRI4US1:06:081:06:124:13 14.2325sen37968MALONNE
38.3954CHATELAIN JULIEN31BELHUYLES FOULEES DU PLAIS1:06:121:06:154:14 14.2226sen38967FRAITURE
39.3337LELIÈVRE THIERRY44BELJOGGANS1:06:191:06:224:14 14.209ve139965BRUXELLES
40.321ORVAL ALAIN47BEL1:06:351:06:374:15 14.1410ve140961CINEY
41.3872MARCHAL GILLES27BELGAG1:06:321:06:414:15 14.1327sen41961GEMBLOUX
42.219KOLP VINCENT29BEL1:06:461:06:474:16 14.1128sen42958HORRUES
43.3392DULIEU RAYMOND51BELSAP EVENTS1:06:561:06:584:16 14.075ve243955ERPENT
44.3513VANDEN BOSSCHE PHILIPPE47BEL1:07:061:07:074:17 14.0411ve144953LIMAL
45.3137DUFEY CÉDRIC36BELPFA TEAM1:07:081:07:124:17 14.0229sen45952NATOYE
46.2622DESCAMPS FABRICE46BEL1:07:141:07:164:18 14.0112ve146950
47.2527DIEUDONNE GILLES32BELARCH1:07:061:07:184:18 14.0030sen47952
DNF: abandon; DSQ: disqualifié; Vitesse en km/h
08/03/2021 - 04:29 - 881 Entrées
ChronoRace - Electronic Timing SPRL
http://www.chronorace.be

Page 1 / 18  
La Printanière
Par sexe
M
Erpent, 13/02/2016, BEL
Delhalle - 15.7km - Classement
15.7km 
Catégorie
PosNrNomAgeIOCLigueEquipeRéelTempsTkmMoy.RangNomScrPtsLocalité
48.3519ADAM PIERRE32BELJCCS1:07:201:07:204:18 13.9931sen48948
49.3823DARAS NICOLAS39FRAFFAGRAC GIVET1:07:211:07:244:18 13.9832sen49948GIVET
50.3064ANDRE OLIVIER38BELTEAM BRP1:06:491:07:274:18 13.9733sen50955FLAWINNE
51.777DESTREBECQ FRANCOIS42BELETCHIEVR1:07:291:07:314:18 13.9513ve151946FRASNES
52.2618MARION GAËTAN32BELRCNAMUR1:07:331:07:354:19 13.9434sen52944GRAND-LEEZ
53.3763VAN LEENDERT CHRISTOPHER28BELRCNAMUR1:07:351:07:384:19 13.9335sen53943SAINT-MARC
54.3776ARNOULD SEBASTIEN38BELRC NAM1:07:351:07:384:19 13.9336sen54943FLAWINNE
55.2670MARINX MATHIEU32BEL1:07:271:07:454:19 13.9137sen55944
56.3827LEHANCE PASCAL44BELORWAL1:07:451:07:484:20 13.8914ve156940LIEGE
57.990PAQUES THIERRY50BELJOGGPLUS1:07:331:07:524:20 13.886ve257942BEAUFAYS
58.3012DACHELET GREGORY36BEL1:07:511:07:554:20 13.8738sen58938NATOYE
59.329DUBUC EMILE45BELSMAC1:07:541:07:554:20 13.8715ve159937CRUPET
60.823BOURNONVILLE RUDDY42BELSMAC1:07:561:07:584:20 13.8616ve160936BOIS-DE-VILLERS
61.2525BUIS QUENTIN28BELRONVAU1:08:081:08:114:21 13.8239sen61933WAVRE
62.3283CHARLES PATRICK39BEL1:08:111:08:144:21 13.8140sen62932MOUSTIER
63.3514KEMPINAIRE PHILIPPE28BEL1:08:281:08:314:22 13.7541sen63928
64.3343HUTS SVEN43BELKAPUCIENENLOPER/BAIK1:08:311:08:334:22 13.7417ve164927VOSSEM
65.2650LAMOTTE QUENTIN26BELACBBS1:08:371:08:414:23 13.7242sen65926
66.3101ROUSSEAU DAVID43BELAXA TEAM1:08:341:08:444:23 13.7118ve166926BRAIVES
67.3844VAN DEN KERCKHOVE OLIVIER37BEL1:08:421:08:464:23 13.7043sen67924GEDINNE
68.2553DUMONT JEROME25BEL1:08:511:08:514:24 13.6844sen68922JAMBES
69.3757SCHAEFER ERIC35BELTURBO1:08:451:08:534:24 13.6845sen69923TILLY
70.3267DEWAIDE ANTONI43DEU1:08:491:08:544:24 13.6719ve170921TINLOT
71.3877DETRAIT HUGUES28BELACCO1:08:551:08:594:24 13.6646sen71920PHILIPPEVILLE
72.3041NEYMAN ERIC48BELTEAM MARCEL1:09:101:09:104:25 13.6220ve173916HERON
73.2677HAQUENNE ROMAIN23BEL1:08:541:09:164:25 13.6047sen74920
74.3573GIVRON RÉGIS26BEL1:08:331:09:194:25 13.5948sen75924CHARLEROI
75.851BAIJOT PHILIPPE50BELJCCS1:09:181:09:194:25 13.597ve276913GEDINNE
76.3325DIDIER AURELIEN29BELPDO TEAM1:09:201:09:244:26 13.5749sen77912ACHÊNE
77.3338HANCE THIBAUT33BEL1:09:231:09:264:26 13.5750sen78912BELGRADE
78.712LORENT XAVIER35BELBOUFFIOLS1:09:041:09:264:26 13.5751sen79916BOUFFIOULX
79.2734BOVERIE JONATHAN28BELSTEPTOTRI1:09:311:09:334:26 13.5552sen81909CHASTRE
80.291DE VOS DAVID35BEL1:09:331:09:344:26 13.5453sen82908THON-SAMSON
81.850VAN DEN BERGH ALAIN54BEL1:09:411:09:454:27 13.518ve283906COURCELLES
82.3945FRÈRE GILLES44BELWACO1:09:471:09:494:27 13.4921ve184904HANNUT
83.3028PIRSOUL DENIS49BELARCH1:09:541:09:574:28 13.4722ve185903HAVELANGE
84.3328NANIWE GILLES40BDI1:09:581:09:584:28 13.4623ve186902BRAINE L'ALLEUD
85.2730PONCELET FREDERIC43BELJCPMF RAMILLIES1:10:011:10:014:28 13.4524ve187901
86.387BOSKIN BERNARD28BEL1:09:511:10:134:29 13.4254sen89902STAVELOT
87.175DENIS PATRICK50BELARCH1:10:121:10:134:29 13.429ve290897BERTRIX
88.3271FAUTSCH MICHEL38BELORWAL1:10:141:10:214:29 13.3955sen91896LESVE
89.2599EVRARD BERTRAND35BEL1:10:161:10:224:29 13.3956sen92896BRAIBANT
90.2745ANNET PHILIPPE38BEL1:10:181:10:224:29 13.3957sen93895
91.3932MAKUMBA BENJAMIN39BEL1:10:251:10:324:30 13.3658sen94893RHODE ST GENÈSE
92.3398STOCKMANS FRANÇOIS50BELRCB1:10:361:10:384:30 13.3410ve295891BRUXELLES
93.3342CAMMAERTS BART37BELKAPUCIENENLOPER/BAIK1:10:331:10:394:30 13.3359sen96891LEEFDAAL
94.2566TOUSSAINT PIERRE-YVES24BELBH BELGIUM TEAM1:10:421:10:434:31 13.3260sen97889YVOIR
DNF: abandon; DSQ: disqualifié; Vitesse en km/h
08/03/2021 - 04:29 - 881 Entrées
ChronoRace - Electronic Timing SPRL
http://www.chronorace.be

Page 2 / 18  
La Printanière
Par sexe
M
Erpent, 13/02/2016, BEL
Delhalle - 15.7km - Classement
15.7km 
Catégorie
PosNrNomAgeIOCLigueEquipeRéelTempsTkmMoy.RangNomScrPtsLocalité
95.2691MINE SIMON28BEL1:10:501:10:534:31 13.2961sen99886
96.2543PIERRE ETIENNE46BELARCH1:10:541:10:554:31 13.2925ve1100886
97.3876GILLOT STÉPHAN41BEL1:10:521:10:554:31 13.2826ve1101886WARÊT-LA-CHAUSSÉE
98.3167DELLIEU LOUIS26BELTNT1:10:031:10:594:32 13.2762sen103896NAMUR
99.3175PASTEELS JOHAN31BELSMAC1:11:031:11:034:32 13.2663sen104882LONGCHAMPS
100.2717NOUAMANI MOHAMMED45BELJOGGANS1:11:031:11:094:32 13.2427ve1105882
101.2665PINCHART MICHAEL39BELMEUTIS BIKERS1:11:101:11:154:33 13.2264sen106880MEUX
102.3166MIGNON JEAN-POL47BELJ31:10:521:11:164:33 13.2228ve1107884FLORIFFOUX
103.2680MASSON CHRISTOPHE31BELSHARKS TRIATHLON1:11:191:11:194:33 13.2165sen108878WÉPION
104.2736DELWICHE LUC34BEL1:11:181:11:214:33 13.2066sen109877FLAWINNE
105.181LABBÉ JEAN-MARIE56BEL1:11:191:11:224:33 13.2011ve2110877EGHEZÉE
106.3864PETIT CÉDRIC40BELGAG1:10:571:11:234:33 13.2029ve1111882BOVESSE
107.3897LEMINEUR QUENTIN28BEL1:11:091:11:304:34 13.1867sen112878ISNES
108.2750MASSART CORENTIN19BHSRC NAMUR1:11:291:11:364:34 13.161esp113874
109.3752DE GREEF PIERRE44BELARCHARCH1:11:361:11:374:34 13.1530ve1114872CINEY
110.439LIENARD PHILIPPE46BELSPIBO1:11:591:12:004:36 13.0831ve1116867BLAUGIES
111.3282TONERO ALEXANDRE34BELTCDM1:11:551:12:034:36 13.0868sen117867MONS
112.3387DE VLEESCHAUWER DIMITRI34BELRUNNING TEC NAMUR1:11:261:12:034:36 13.0869sen118873FLAWINNE
113.889LECRENIER BENJAMIN32BELFLEU1:12:031:12:044:36 13.0770sen119865FRANIERE
114.3076MOLITOR ANDRE55BELARCHMARCHE EN FAMENNE1:12:051:12:104:36 13.0612ve2120864HARGIMONT
115.3377MONIOTTE GILLES-ANTOINE46BEL1:12:101:12:114:36 13.0532ve1121863VEDRIN
116.3767BRUGGEMAN DEREK30BEL1:12:261:12:294:37 13.0071sen122859MEUX
117.3274JOKUZYS DEIVIDAS43LTU1:12:021:12:294:37 13.0033ve1123864BRUXELLES
118.3998DEPAEPE PATRICK46BELOXY 2000 - RC NAMUR1:12:321:12:324:38 12.9934ve1124857THIEUSIES
119.3040GHYSSELINCKX CHRISTOPHE37BELJAMES1:12:371:12:434:38 12.9672sen125856LOUVAIN-LA-NEUVE
120.839POUCET BENOIT51BELJACO1:12:351:12:454:38 12.9513ve2126856SELOIGNES
121.677PAULUS PHILIPPE55BELESM1:12:261:12:474:39 12.9514ve2127858MONT-SUR-MARCHIENNE
122.3285BROUIR LUC49BEL1:12:451:12:484:39 12.9435ve1128853BOIS DE VILLERS
123.2611AUQUIER GERY61BELSMACTRAKKS1:12:471:12:484:39 12.941ve3129853
124.3322LAURENT JOHN40BELARCHARCH1:12:451:12:494:39 12.9436ve1130853PURNODE
125.3801LUXEN JEAN MICHEL50BELJ3-JCPMF GEMBLOUX1:12:521:12:524:39 12.9315ve2131851GEMBLOUX
126.983CULLOP PAUL55BELENJAMBEE1:12:481:12:554:39 12.9216ve2132851BRUXELLES
127.2746BOVERIE LIONEL21BEL1:12:571:13:004:39 12.9173sen133849CHASTRE
128.3289DEGIMBE RAPHAEL39BELRAPTOR TEAM1:12:591:13:034:40 12.9074sen134849CHAMPION
129.2727PEIGNOIS BASILE25BELRUNNING TEAM 11.11.111:12:411:13:074:40 12.8875sen135852NAMUR
130.3989BERBEN REMI28BEL1:13:061:13:134:40 12.8776sen136847ANHÉE
131.228MARCHAL YVES46BELRUN WILD1:13:091:13:154:40 12.8637ve1137846VEDRIN
132.3566DEMOLDER YOANN26BELRIWARIWA1:13:171:13:194:41 12.8577sen138844
133.21TOUSSAINT FRANK50BELSCBUTG1:13:211:13:234:41 12.8417ve2139842SOURBRODT
134.236DUYCK XAVIER49BEL1:13:221:13:274:41 12.8338ve1140842SPY
135.2731RIGUELLE FRANÇOIS35BEL1:12:571:13:294:41 12.8278sen141847SOMBREFFE
136.2639RADART FLORENTIN31BELBLACKBIRD1:13:391:13:404:42 12.7979sen142838
137.3087THOMAS BENJAMIN33BELSALZONE1:13:231:13:424:42 12.7880sen143841NAMUR
138.3386BALLEUX CHRISTOPHE40BELZATOPEK NAMUR1:13:071:13:434:42 12.7839ve1144844BOIS-DE-VILLERS
139.2724CORDIER PASCAL46BELURBAN TRI SPORTS1:13:391:13:434:42 12.7840ve1145837
140.3134MONIOTTE GABRIEL46FRARC NAMUR1:13:441:13:494:43 12.7641ve1146836BONINNE
141.58HENRY ANDRE56BELRCB1:13:551:13:554:43 12.7418ve2147833LA HULPE
DNF: abandon; DSQ: disqualifié; Vitesse en km/h
08/03/2021 - 04:29 - 881 Entrées
ChronoRace - Electronic Timing SPRL
http://www.chronorace.be

Page 3 / 18  
La Printanière
Par sexe
M
Erpent, 13/02/2016, BEL
Delhalle - 15.7km - Classement
15.7km 
Catégorie
PosNrNomAgeIOCLigueEquipeRéelTempsTkmMoy.RangNomScrPtsLocalité
142.3409POUSSEUR DOMINIQUE46BELARCH1:13:581:14:014:43 12.7342ve1148832LEIGNON
143.294HASSOUTE EL MOUSTAFA50BELCSFMYSTERE1:13:551:14:074:44 12.7119ve2149832FOREST
144.2688VAST BRUNO32BELLBFTDTRI4US1:14:051:14:094:44 12.7181sen150830
145.858POTTIEZ PHILIPPE52BELVERTIGO1:14:031:14:124:44 12.7020ve2151831MONS
146.3346SAINTVITEUX MICHAËL43BELGAG1:13:591:14:124:44 12.7043ve1152831GEMBLOUX
147.519MATHIEU ALEXIS25BELJCCS1:13:481:14:144:44 12.6982sen153833GEDINNE
148.742RATINCKX CHRISTOPHE25BELRIWA1:14:041:14:144:44 12.6983sen154829WAVRE
149.2557DORANGES JEAN-CHARLES36FRA1:13:511:14:174:44 12.6884sen155831NAMUR
150.2725ELAERTS MATHIAS19BELRFCL ATHLE1:13:591:14:194:45 12.682esp156829NEDER-OVER-HEEMBEEK
151.3990EVRARD CHRISTOPHE42BELRCNAMUR1:14:161:14:234:45 12.6744ve1157826VEDRIN
152.556RATINCKX JEAN-PHILIPPE28BELRIWA1:14:111:14:244:45 12.6685sen158827OTTIGNIES
153.2616BERGIERS CHRISTOPHE48BELCC ST MARTIN1:14:191:14:264:45 12.6645ve1159825
154.3569DELPIERRE JEAN-LUC57BEL1:14:251:14:274:45 12.6521ve2160823
155.3961BOSSIROY ERIC31BELTABORA1:13:521:14:314:45 12.6486sen161830SART-SAINT-LAURENT
156.2662MEURISSE PAUL26BELCOACH R1:14:161:14:454:46 12.6087sen163824
157.74BROUWIER PIERRE64BELHERVE1:14:461:14:484:46 12.602ve3164818GRAND RECHAIN
158.2664PIERARD STÉPHANE31BELTAFTAF1:14:491:14:504:46 12.5988sen166816MARCHE-EN-FAMENNE
159.420CAUDRON DAVID49BELSPIBO1:14:451:14:504:46 12.5946ve1167817FLENU
160.3824BOUCHONVILLE TAE BOK35BEL1:14:231:14:524:47 12.5889sen168821NAMUR
161.3777DOS SANTOS NEIVA SERGIO43PRTARCH1:14:531:14:534:47 12.5847ve11698155524
162.106LORGE JEAN-MARC50BELRONVAU1:14:551:15:074:48 12.5422ve2170814EGHEZEE
163.78DUTRIEUX FERNAND45BEL1:15:121:15:154:48 12.5248ve1171811BAUDOUR
164.3094VAN CAMP LAURENT39BELTURBO1:15:091:15:184:48 12.5190sen172811HENRIPONT
165.3147BRUNEEL STÉPHANE31BELMYSTERE1:15:131:15:234:49 12.5091sen173809BRUXELLES
166.594BOSSANT JEAN-FRANCOIS41BELFER1:15:221:15:234:49 12.5049ve1174807VELLEREILLE-LE-SEC
167.2570MOYEN JONATHAN38BEL1:15:221:15:264:49 12.4992sen175807BASTOGNE
168.3090PIERMAN BAPTISTE26BELTURBOTURBO1:14:581:15:304:49 12.4893sen176812CORROY-LE-GRAND
169.3042ROSOUX PIERRE-YVES49BELXTREME TEAM BELGIUM1:14:561:15:334:49 12.4750ve1177812GANSHOREN
170.3068JACOBS OLIVIER43BELAG RUNNING TEAM1:15:061:15:334:49 12.4751ve1179809GEMBLOUX
171.539MARTIN CHRISTOPHE39BELRUNNING GAUME1:15:321:15:354:49 12.4694sen180804VIRTON
172.3789GUEUNING BENOÎT36BELTAF1:15:171:15:364:49 12.4695sen181806MARLOIE
173.3942COLLARD ETIENNE48BELARCH1:15:341:15:374:49 12.4652ve1182803LESVE
174.3981HECQ OLIVIER DIT CRUCHOT50BELJ3-CELESTES-OMLL1:15:221:15:394:50 12.4523ve2184804ANDENNE
175.3873DE MEERSMAN THIBAUT37BELMYRUN1:15:111:15:404:50 12.4596sen185807MARCHOVELETTE
176.2630DE BILDERLING GEORGES49BELSMAC1:15:481:15:534:50 12.4253ve1187798LESVE
177.2693GROYNNE EDOUARD29BEL1:15:551:15:554:51 12.4197sen188797JAMBES
178.778MINETTE SEBASTIEN36BELATCC1:16:011:16:044:51 12.3898sen190795CHATELINEAU
179.956BARTOSZUK ROMAN42BEL1:15:571:16:054:51 12.3854ve1191795ZAVENTEM
180.2696FRANCOTTE JULIEN41BEL1:15:431:16:164:52 12.3555ve1193798
181.553DEVIS LUIGI18BELJAMES1:15:581:16:184:52 12.353esp194794RIXENSART
182.463DEMIN MICHEL48BELTEAM MARCEL1:16:091:16:184:52 12.3556ve1195792SOVET
183.2617LAMOUREUX KEVIN25BELTEAM MYRUN1:16:101:16:234:52 12.3399sen196791
184.3099DONNEAU MAXIME29BELTAF1:16:171:16:234:52 12.33100sen197789SOMME-LEUZE
185.3778CERQUEIRA BARTOLOMEU40PRT1:16:131:16:244:52 12.3357ve1198790PROFONDEVILLE
186.2614GODRY MARVIN23BELMYRUN1:16:141:16:274:53 12.32101sen199790
187.2740MATTHEE ALEX44BEL1:16:191:16:304:53 12.3158ve1200788
188.3783HOWET JEAN-PIERRE54BELORWAL1:16:241:16:314:53 12.3124ve2201787JAMBES
DNF: abandon; DSQ: disqualifié; Vitesse en km/h
08/03/2021 - 04:29 - 881 Entrées
ChronoRace - Electronic Timing SPRL
http://www.chronorace.be

Page 4 / 18  
La Printanière
Par sexe
M
Erpent, 13/02/2016, BEL
Delhalle - 15.7km - Classement
15.7km 
Catégorie
PosNrNomAgeIOCLigueEquipeRéelTempsTkmMoy.RangNomScrPtsLocalité
189.3144GIOZZET FRÉDÉRIC33BELBIBINNERUNNERS1:15:581:16:354:53 12.30102sen202792JAMBES
190.2655BASTIEN BENOIT47BEL1:16:351:16:394:53 12.2959ve1203784
191.3047VERHULST EMMANUEL40BELTAF1:16:451:16:494:54 12.2660ve1204782ROCHEFORT
192.265BOONEN CHRIS45BELAVN1:16:451:16:514:54 12.2661ve1205782MEER
193.3555TORRES SYLVANO37ITABOUFFIOLS1:15:311:17:014:55 12.23103sen206796
194.659PISSENS JEREMY31BEL1:16:321:17:064:55 12.22104sen207784LANDENNE
195.3814LELEU LAURENT46BELTRI4US1:16:351:17:094:55 12.2162ve1208783ANHÉE
196.3985FILSFILS MAXIME35BEL1:16:481:17:114:55 12.21105sen209780NAMUR
197.3122BONNE MATHIEU29BEL1:16:481:17:124:56 12.20106sen210779ERPENT
198.3539NAERT FRANK51BELHCO1:17:241:17:274:56 12.1625ve2211772RUDDERVOORDE
199.3020CORNET FABRICE47BELFAST1:17:191:17:274:56 12.1663ve1212773TINLOT
200.3025DE BIE WALTER59BELHOOIBERGLOPERS1:17:241:17:294:57 12.1626ve2213772HAACHT
201.3060PIRE-STEVENNE FRÉDÉRIC36BEL1:17:131:17:294:57 12.16107sen214774GODINNE
202.876GODFROID YVES49BELUSBWMYSTERE1:17:341:17:414:57 12.1364ve1215769WATERLOO
203.3565DUMONT ROBIN26BEL1:17:411:17:424:57 12.13108sen216767LIMAL
204.566DE MARCHI NICO56BEL1:17:421:17:444:58 12.1227ve2217767LIEGE
205.425DE GRAVE OLIVIER51BELCSFMYSTERE1:17:311:17:454:58 12.1228ve2218768UCCLE
206.3799LEMAIRE ÉDOUARD39BELPDO TEAM1:17:441:17:504:58 12.10109sen219766NOVILLE-LES-BOIS
207.2747FANUEL HERVÉ39BEL1:17:141:17:514:58 12.10110sen220772MOHA
208.3522BASTOS ALBERTO56PRT1:17:501:17:534:58 12.1029ve2221764CHAUMONT GISTOUX
209.3388LEMINEUR ADRIEN30BEL1:17:501:17:564:58 12.09111sen222764YVOIR
210.3886MELOTTE HENRI52BELRUNPRO1:17:351:17:564:58 12.0930ve2223766PROFONDEVILLE
211.2660WINANDY GUY60BELRCA SPA1:17:341:17:564:58 12.093ve3224766VERVIERS
212.3314THORNTON GEOFFREY37BEL1:17:531:18:004:59 12.08112sen226762WAUTHIER-BRAINE
213.3257ROUSSELLE JOEL64BEL1:18:021:18:044:59 12.074ve3228760
214.243FONTAINE PATRICE42BELFORESTIERE1:17:561:18:074:59 12.0665ve1229760HERCHIES
215.3835ZIMMER DYLAN37BELSMAC1:18:091:18:094:59 12.05113sen230758FLAWINNE
216.714MAILIER CHRISTIAN60BELCRACESM1:18:051:18:104:59 12.055ve3231758ROUX
217.759DUBOIS THIERRY44BELJC HERINNES1:17:451:18:134:59 12.0466ve1232762KAIN
218.3098MARTIN PEREZ MIGUEL43BEL1:18:081:18:155:00 12.0467ve1233757SCLAYN - ANDENNE
219.3517DIEDEREN STEPHEN38BELCAP NRB1:17:581:18:155:00 12.04114sen234759
220.3862BERTRAND MICHEL63BELSERATH1:18:181:18:225:00 12.026ve3235755OUFFET
221.690LUPCIN PATRICK59BELRCNAMUR1:18:241:18:245:00 12.0231ve2236753PERWEZ
222.3505FIASSE FRANCOIS39BELPJBR1:17:151:18:255:00 12.01115sen237767
223.2588PEPIN CEDRIC38BELCHEZ THIB1:17:591:18:255:00 12.01116sen238757FLAWINNE
224.3262GAUSSET OLIVIER49BELAXA TEAM1:18:241:18:275:00 12.0168ve1239752BRUXELLES
225.68MASURE ALEXANDRE46BELRCNAMUR1:18:241:18:345:01 11.9969ve1240752LEUZE
226.431MARTIN ERIC53BEL1:18:291:18:385:01 11.9832ve2241750WANDRE LIEGE
227.2590EL IMRANI ISSAM36BEL1:18:131:18:395:01 11.98117sen242754
228.2738GREMES THOMAS33BEL1:18:181:18:405:01 11.98118sen243752VEZIN
229.223DECHAMPS RAOUL41BELSPTWAVRE1:18:401:18:445:01 11.9770ve1244748LIMAL
230.3129LIBERT JULIEN28BELSENTIERS DU PHOENIX1:18:331:18:455:01 11.96119sen245749BUZET
231.3773ACUSILAS JEAN-YVES46BELRC NAMUR1:18:441:18:475:02 11.9671ve1246746JAMBES
232.2580DESILLE JEREMIE38BEL1:18:421:18:505:02 11.95120sen247746NAMUR
233.2628BOUCHAT LIONEL30BELZATAC NAMUR1:18:441:18:575:02 11.93121sen248746
234.3908SYKOVARIS STAMATIOS50BELGANT1:18:491:18:585:02 11.9333ve2249745BRUXELLES
235.2558FRANCOTTE FREDERIC50BEL1:18:411:19:035:03 11.9234ve2250746
DNF: abandon; DSQ: disqualifié; Vitesse en km/h
08/03/2021 - 04:29 - 881 Entrées
ChronoRace - Electronic Timing SPRL
http://www.chronorace.be

Page 5 / 18  
La Printanière
Par sexe
M
Erpent, 13/02/2016, BEL
Delhalle - 15.7km - Classement
15.7km 
Catégorie
PosNrNomAgeIOCLigueEquipeRéelTempsTkmMoy.RangNomScrPtsLocalité
236.3138VIGNERON MANUEL31BEL1:18:441:19:055:03 11.91122sen251745VEZIN
237.3070STENHOUSE ALEXANDER53GBRRUNPRO1:18:441:19:065:03 11.9135ve2252744PROFONDEVILLE
238.3550BERTHE JEAN-LOUIS27BEL1:18:551:19:065:03 11.91123sen253742RHISNES
239.3533BRIDOUX ROMAIN28BELFLEU1:18:171:19:085:03 11.91124sen254749
240.30HANNOTTE CHRISTOPHE43BELRUN FERNELMONT1:18:451:19:085:03 11.9072ve1255743NOVILLE-LES-BOIS
241.2582VANACKERE GILLES23BELCSDYANTILOB1:18:391:19:125:03 11.90125sen256744
242.955TOUSSAINT XAVIER36BEL1:18:431:19:185:04 11.88126sen257743ANDERLUES
243.3782DE BACKER ERWIN59BEL1:19:011:19:225:04 11.8736ve2259739ANTWERPEN
244.531ANTENUCCI MAURO59BELESM1:19:201:19:255:04 11.8637ve2260735GOSSELIES
245.3866JOTTARD CHRISTOPHE41BELP81:19:081:19:265:04 11.8673ve1261737OCQUIER
246.3121LIBOIS MARC42BELRAPTOR TEAM1:19:111:19:285:04 11.8574ve1262736WEPION
247.3874PAYE DOMINIQUE49BEL1:18:541:19:325:04 11.8475ve1263739NAMUR
248.2672VANSNICK FABIAN35BEL1:19:051:19:365:05 11.84127sen264737
249.370DE GEEST ALEXANDRE45BELMYSTERE1:19:231:19:385:05 11.8376ve1265733BRUXELLES
250.3107CLINET PHILIPPE47BEL1:19:361:19:555:06 11.7977ve1266730WEPION
251.3523CHAMPAGNE REGIS42BEL1:19:541:20:005:06 11.7878ve1267726
252.3352DEGEIMBRE SANG-HO45BELZATOPEK NAMUR1:19:461:20:025:06 11.7779ve1268728TEMPLOUX
253.2559BISCOS DAVID43BELJAMES1:20:011:20:025:06 11.7780ve1269724
254.2733JORIS DIMITRI31BEL1:19:331:20:105:07 11.75128sen270730
255.3923DUBUC LAURENT-EMMANUEL29BEL1:20:091:20:145:07 11.74129sen271722GEMBLOUX
256.554BINKERT MARC55CHELDLV1:20:071:20:155:07 11.7438ve2272723GANSHOREN
257.3016HOUSIAUX DIMITRI28BELPINK FLOYD1:20:141:20:185:07 11.73130sen273721GESVES
258.3572JOUAN BERNARD51BEL1:19:141:20:205:07 11.7339ve2274732THYNES
259.3836HORNUNG MATTHIEU42DEURED SOX BRUSSELS1:20:051:20:325:08 11.7081ve1275722BRUXELLES
260.2627LEJEUNE SVEN32BELNAMURAID1:20:271:20:375:09 11.68131sen276717NAMUR
261.3890JUSTE CHRISTIAAN60BELLE JOUR1:20:021:20:435:09 11.677ve3277722BOUTERSEM
262.3609FADIAN PEROONSBEL1:18:091:20:445:09 11.671xxx278744
263.308DEVALERIOLA PATRICK52BELPROVINCE NAMUR1:20:341:20:455:09 11.6740ve2279715SUARLEE
264.2642DENEUMOSTIER JEROME31BELTEAM DM BELGIUM1:20:421:20:465:09 11.66132sen280713
265.3956SPITS VINCENT50BELLBFTDTNT1:20:281:20:475:09 11.6641ve2281716FRANC-WARET
266.3541HERMANT JEROME24BEL1:20:351:20:485:09 11.66133sen282714
267.3503VANRIE PIERRE49BELGTC1:20:371:20:535:10 11.6582ve1283714
268.427VAN DER LINDEN PAUL67BELRCNAMUR1:20:441:20:575:10 11.648ve3284712
269.2544MASSART JEAN-FREDERIC53BEL1:20:271:20:585:10 11.6442ve2285715
270.3193DE FAUCONVAL AUGUSTIN23BEL1:20:111:21:015:10 11.63134sen288717KRAAINEM
271.3758GRODRIAN RENAUD43BEL1:21:061:21:085:11 11.6183ve1289706JAMBES
272.3023JACQUES FRÉDÉRIC45BEL1:21:171:21:175:11 11.5984ve1290704BRAIBANT
273.3350JASSELETTE ARNAUD35BELSWIFT1:20:341:21:195:11 11.59135sen291712RIXENSART
274.2615GORJON RUDI48BELRUN FLY1:21:041:21:255:12 11.5785ve1292706
275.148HALLEUX JEAN-MARIE46BELHERV1:21:201:21:275:12 11.5786ve1293702HERVE
276.3518LEVACQ GUY70BELLDLV1:21:201:21:295:12 11.561ve4295702
277.3800DELENS FRÉDÉRIC42BEL1:20:241:21:355:12 11.5587ve1298712JAMBES
278.2626EUGÈNE PIERRE33BELNAMURAID1:21:301:21:405:13 11.54136sen300699JAMBES
279.3821BAURAING DAVID29BEL1:21:301:21:425:13 11.53137sen301698GEMBLOUX
280.284MARTHOZ PASCAL47BEL1:20:571:21:425:13 11.5388ve1302704BRUXELLES
281.2506VANDE VELDE ERIK48BEL1:20:501:21:465:13 11.5289ve1303705
282.3810CUVELIER SERGE56BELR C NAMUR1:21:381:21:475:13 11.5243ve2304696WÉPION
DNF: abandon; DSQ: disqualifié; Vitesse en km/h
08/03/2021 - 04:29 - 881 Entrées
ChronoRace - Electronic Timing SPRL
http://www.chronorace.be

Page 6 / 18  
La Printanière
Par sexe
M
Erpent, 13/02/2016, BEL
Delhalle - 15.7km - Classement
15.7km 
Catégorie
PosNrNomAgeIOCLigueEquipeRéelTempsTkmMoy.RangNomScrPtsLocalité
283.3265ZICOT CHRISTOPHE42BEL1:21:331:21:495:13 11.5190ve1305697AUVELAIS
284.685LETELLIER JEAN LUC51BELMYSTERE1:21:461:21:545:13 11.5044ve2306694WAVRE
285.841SALVATO DOMENICO53ITACSFMYSTERE1:21:261:21:565:14 11.5045ve2307697BRUXELLES
286.332HANNARD KEVIN33BEL1:21:491:21:585:14 11.49138sen308693AUVELAIS
287.3069CEBO FRÉDÉRIC46BELVALEO+/BOUFFIOLS1:20:361:22:055:14 11.4891ve1310706MONTIGNIES-SUR-SAMBRE
288.3851SERGYSELS PASCAL48BELJOGGANSJOGGANS1:22:061:22:125:15 11.4692ve1311689BRUXELLES
289.2643DENEUMOSTIER ROMUALD29BEL1:22:081:22:145:15 11.46139sen312688HUY
290.3585LEJEUNE GREGOIRE27BEL1:22:111:22:155:15 11.46140sen313687
291.2592GOESSENS JULIEN43BELOCAN1:22:031:22:155:15 11.4593ve1314688
292.2675ROUER FABRICE40BEL1:21:351:22:205:15 11.4494ve1315693
293.497WYNS JOS64BELHULSHEISTSE BERGLOP1:22:121:22:205:15 11.449ve3316686HALLAAR
294.26DRAMAIX SYLVAIN37BELSPIBO1:22:121:22:235:15 11.44141sen317686HERCHIES
295.2579BUFFET JUNIOR39BEL1:21:481:22:235:15 11.44142sen318690SORINNES
296.837CEUPPENS PAUL55BELHAMURABI1:21:481:22:235:15 11.4346ve2319690LINT
297.396SOMERS LUDO53BELHAMURABI1:21:541:22:295:16 11.4247ve2320689LINT
298.3529BADOUX FLORIAN28BELTRI4US1:22:301:22:335:16 11.41143sen321681ANDENNE
299.567DECLERCQ JOE58BELCEPAL1:22:301:22:345:16 11.4148ve2322681BRUXELLES
300.246VANTSIOTIS ANASTHASE63FRA1:22:291:22:345:16 11.4110ve3323681BARR
301.3032FOGUENNE OLIVIER45BELEXPERT-COMPTABLE1:22:271:22:365:16 11.4195ve1324681STAVELOT
302.3516BRUYERE PATRICK39BELBOUFFIOLS1:21:071:22:365:16 11.40144sen325696
303.3770SCHELFHOUT WIM38BEL1:21:381:22:365:16 11.40145sen326690MECHELEN
304.3062JACQUEMART SERGE51BEL1:22:151:22:385:16 11.4049ve2328682SART SAINT LAURENT
305.3820HONORÉ BRUNO52BEL1:22:241:22:465:17 11.3850ve2329680NANINNE
306.465BOSKIN JEAN-CLAUDE61BELLES IDYLLES1:22:311:22:545:17 11.3611ve3330678STAVELOT
307.118PLONGEON JEAN-FRANÇOIS38FRA1:22:311:22:565:17 11.36146sen331678HEVILLERS
308.2720CANTRAINE NICOLAS41BELOCANOCAN1:22:351:22:595:18 11.3596ve1332677
309.395FOHAL JEAN-LUC51BELETCHIEVR1:22:081:23:045:18 11.3451ve2333682MESLIN-L'EVEQUE
310.3254ORTEGA-TORRES ENRIQUE58BELRRT CH ATCC1:23:071:23:155:19 11.3252ve2334671MELLET
311.22DE MASI GIANNI63ITAFLEU1:23:001:23:155:19 11.3212ve3335672WANFERCEE BAULET
312.2537POMILIO NICOLA46BELSPIBO1:23:101:23:155:19 11.3297ve1336669QUAREGNON
313.3857CORDIER NICOLAS36BELRUNNIN'GREZ1:22:451:23:185:19 11.31147sen337674GREZ-DOICEAU
314.2523LIBERT THIERRY41BELET ENGHIEN1:23:031:23:195:19 11.3198ve1338670
315.3109MARTIN PHILIPPE56BELRUNPRO1:23:001:23:215:19 11.3053ve2339670WÉPION
316.3963SACRE RÉMI30BELORWAL1:23:061:23:235:19 11.30148sen340669NANINNE
317.3768EVRARD JULIEN36BEL1:22:261:23:255:19 11.29149sen3416765140
318.3019VAESSEN ALAIN44BELFAST1:23:211:23:265:19 11.2999ve1342666TINLOT
319.693CHAUVIER J.PIERRE56BEL1:23:111:23:285:19 11.2954ve2343667GENVAL
320.3826QUITTELIER JASON26BEL1:23:221:23:295:19 11.29150sen344665MARCHIN
321.3535MAGOTTEAUX NICOLAS30BELGSK BB FUN1:22:531:23:315:20 11.28151sen346670SELOIGNES
322.3253DENDAL DIDIER53BEL1:23:241:23:325:20 11.2855ve2347664LIÈGE
323.802VANWYNSBERGHE BERNARD56BELJAMES1:23:271:23:325:20 11.2856ve2348663WALHAIN
324.573SIBOURG MARC48BEL1:23:211:23:375:20 11.27100ve1349664TERWAGNE
325.438LEWILLION PHILIPPE50BELFER1:23:411:23:445:20 11.2557ve2351659JURBISE
326.3182POLLART JEAN-FRANÇOIS49BELWOLF TEAM1:23:361:23:465:21 11.25101ve1352660LONZÉE
327.128BAURIN HERVE51BEL1:23:281:23:495:21 11.2458ve2353661AGIMONT
328.3108VAN DE VYVERE POL49BEL1:23:341:23:505:21 11.24102ve1354660NOVILLE-LES-BOIS
329.848DEVIERE MICHEL53BELFORESTIERE1:23:201:23:585:21 11.2259ve2355662MONS
DNF: abandon; DSQ: disqualifié; Vitesse en km/h
08/03/2021 - 04:29 - 881 Entrées
ChronoRace - Electronic Timing SPRL
http://www.chronorace.be

Page 7 / 18  
La Printanière
Par sexe
M
Erpent, 13/02/2016, BEL
Delhalle - 15.7km - Classement
15.7km 
Catégorie
PosNrNomAgeIOCLigueEquipeRéelTempsTkmMoy.RangNomScrPtsLocalité
330.3918TESTELMANS LUC54BEL1:23:541:23:595:21 11.2260ve2356656HERSELT
331.337DAMSTEN THIERRY52FIN1:23:421:24:015:22 11.2161ve2357658ROSIERES
332.3066MASSAUX DAVID41BEL1:23:211:24:015:22 11.21103ve1358661NAMUR
333.2668MARINX ANTOINE29BEL1:23:441:24:025:22 11.21152sen359656
334.3580BONTE MICHAEL37BEL1:24:071:24:075:22 11.20153sen360652
335.3579MERCENIER BENOÎT40BELANTILOB1:24:081:24:085:22 11.20104ve1362651
336.404TILBURGS FRANK49BELAVN1:23:551:24:135:22 11.19105ve1364653MEER
337.658DECAMPS ERIC49BELESM1:24:221:24:265:23 11.16106ve1365648GOZEE
338.3128POT GERARD58FRAMYSTERE1:24:221:24:265:23 11.1662ve2366647WAVRE
339.748SALAZAR NOËL43BEL1:24:031:24:285:23 11.15107ve1367651SINT-JANS-MOLENBEEK
340.3582MOREAU CORENTIN24BEL1:24:291:24:295:23 11.15154sen368645
341.3992CLAES AURELIEN29BEL1:24:131:24:325:24 11.14155sen369649NAMUR
342.695DE DAPPER DAVID43BELCSFMYSTERE1:24:331:24:355:24 11.14108ve1370645BRUXELLES
343.3264GERMIAT BORIS20BEL1:24:181:24:365:24 11.14156sen371647SAINT-SERVAIS
344.3251DE MAET ALEXANDER40BEL1:24:311:24:415:24 11.13109ve1373644VILVOORDE
345.378WEYNAND HELMUT73BELSCBUTG1:24:391:24:465:24 11.112ve4374642KRINKELT
346.3832LECOMTE MICHEL56BELHEIN1:24:041:24:485:25 11.1163ve2375648ASSESSE
347.3863HAYOT CLÉMENT18BEL1:24:011:24:485:25 11.114esp376649SORINNES
348.540LECLERCQ BRUNO50BELCSFMYSTERE1:24:321:24:505:25 11.1164ve2377643FOREST
349.2631HERBINT CHRISTOPHE40BELTRI4US1:24:321:24:555:25 11.09110ve1378642
350.3124GHIGNY THOMAS34BELGAG1:24:291:24:585:25 11.09157sen379642GEMBLOUX
351.2577PERET FRANCOIS37BELJOASSIN TRAIL TEAM1:24:261:25:015:25 11.08158sen380643
352.3849HAYOT DIDIER49BEL1:24:151:25:055:26 11.07111ve1381644SORINNES
353.816DOSSERAY ROGER70BELHF1:25:051:25:105:26 11.063ve4382635PEPINSTER
354.930WALLEE ALAIN60BELTENDONS1:24:361:25:125:26 11.0613ve3383640LA HULPE
355.3252MARTINAGE LIONEL50BELLES POTOS ROSES1:24:561:25:135:26 11.0665ve2384636TONGRINNE
356.3154DUBASIN KEVIN29BEL1:25:131:25:155:26 11.05159sen386632NOISEUX
357.3927MALOTAUX FRANÇOIS39BEL1:24:321:25:175:26 11.05160sen388639SAINT-DENIS
358.991DE HERTOG PHILIPPE46BELGRIMAFRIT 71:25:121:25:345:27 11.01112ve1389632WETTEREN
359.3570TABURIAUX JULIEN30BELANTILOB1:25:311:25:385:28 11.00161sen390628
360.2551RAYMOND FREDERIK40BEL1:25:261:25:425:28 10.99113ve1391629MAIZERET
361.3534CHARASSON OLIVIER41BEL1:24:581:25:475:28 10.98114ve1392634
362.3286BROUIR MAXIME22BEL1:25:241:25:505:28 10.98162sen393629BOIS-DE-VILLERS
363.605SEYNAEVE LAURENT45BEL1:25:451:25:505:28 10.98115ve1394624TEMPLOUX
364.3592GUTIERREZ DAVID34BEL1:25:081:25:515:29 10.97163sen395631
365.3833BEHETS MARC61BEL1:25:371:25:555:29 10.9714ve3396625LUXEMBOURG
366.2501HOMMEL CHRISTOPHE29LUX1:25:411:26:045:29 10.95164sen398624ERPENT
367.3935ROSOUX LIONEL42BEL1:25:241:26:085:30 10.94116ve1399627NAMUR
368.2685BOUILLON JEAN-MARC52BEL1:26:041:26:145:30 10.9366ve2400619
369.2504WILLEMART HUGUES39BEL1:25:351:26:155:30 10.92165sen401624
370.2507SCHINCKUS GÉRALD46BEL1:25:551:26:165:30 10.92117ve1402620BOUGE
371.864GILLET JEAN-PAUL70BEL1:26:171:26:175:30 10.924ve4403616VIRTON
372.3838DEHON LAURENT41BEL1:25:191:26:185:30 10.92118ve1404626NAMUR
373.447BRUGGEMAN DAVID41BELSPTWAVRE1:25:171:26:215:30 10.91119ve1405626LIMELETTE
374.3936DUJEUX TRISTAN37BELHAMOIS LES RANDOS1:26:131:26:265:31 10.90166sen406616CINEY
375.2744ZUYDERHOFF PIERRE31BEL1:26:191:26:325:31 10.89167sen407615ETTERBEEK
376.3525COLLETE HUGUES35BELBOUFFIO1:25:081:26:385:32 10.87168sen408627
DNF: abandon; DSQ: disqualifié; Vitesse en km/h
08/03/2021 - 04:29 - 881 Entrées
ChronoRace - Electronic Timing SPRL
http://www.chronorace.be

Page 8 / 18  
La Printanière
Par sexe
M
Erpent, 13/02/2016, BEL
Delhalle - 15.7km - Classement
15.7km 
Catégorie
PosNrNomAgeIOCLigueEquipeRéelTempsTkmMoy.RangNomScrPtsLocalité
377.3586DELIENS MATHIEU31BEL1:26:201:26:385:32 10.87169sen409614
378.655DUBOIS PIERRE50BELHEIN1:25:561:26:395:32 10.8767ve2410618FLOREE
379.3527LINDEKENS BERTRAND50BELFLEURUS ATHLÉTISME1:26:171:26:415:32 10.8768ve2411614
380.2578MARTIAEL FRANCOIS34BEL1:26:081:26:435:32 10.86170sen413615
381.3905TITECA THIBAUT46BEL1:26:301:26:435:32 10.86120ve1414611MEUX
382.3571LEJEUNE RÉMI32BELNAMURAID1:26:381:26:485:32 10.85171sen415609TAMINES
383.535ROMBAUX MARC56BELCSDY1:26:151:26:505:32 10.8569ve2417612LOUVAIN LA NEUVE
384.2545VERHAEGHE LUC55BEL1:26:181:26:515:32 10.8570ve2418612
385.974LESOIL PHILIPPE49BELENJAMBEE1:26:271:26:545:33 10.84121ve1419610BRUXELLES
386.2732HOGGE SIMON36BEL1:26:381:27:015:33 10.83172sen420608
387.676LESTRATE GABRIEL64BELHEIN1:26:201:27:045:33 10.8215ve3421610FLOREE
388.598VAN LANCKER LAURENT45BEL1:27:001:27:065:33 10.82122ve1422603COURT-SAINT-ETIENNE
389.3391HEUGHEBAERT PIERRE36BEL1:26:341:27:095:34 10.81173sen423607NAMUR
390.3829STREBER GEORGES62BELSMAC1:27:101:27:105:34 10.8116ve3424601ERPENT
391.3189CABOSART VINCENT32BEL1:27:051:27:115:34 10.81174sen425601JAMBES
392.2666DIGRADO ANTHONY28BEL1:27:061:27:155:34 10.80175sen426601NAMUR
393.2598DOUILLEZ XAVIER36BEL1:26:341:27:205:34 10.79176sen427606
394.3917BOLLE PAUL-ANDRÉ55BELZATOPEK URBAN TOUR NAMUR1:26:311:27:235:34 10.7871ve2428606VEDRIN
395.194AUBERT SERGE61BEL1:27:191:27:255:35 10.7817ve3429598GERPINNES
396.3319HUBEAUX VINCENT47BELGAG1:26:181:27:265:35 10.78123ve1430608FLAWINNE
397.82BACHMANN MARC55BEL1:26:451:27:265:35 10.7772ve2431603GREZ DOICEAU
398.3611VANDERLINDEN MARC58BELTRAINING 71:25:481:27:315:35 10.7673ve2433613WATERMAEL
399.2719BERTRAND THIBAUT34BELMINOUS1:27:141:27:335:35 10.76177sen434597CHAMPION
400.3344VILLERS FABIAN30BEL1:27:271:27:365:35 10.75178sen435594GRAND-LEEZ
401.2502LEBLANC GUILLAUME25BEL1:26:411:27:395:35 10.75179sen436602ERPENT
402.3976TIMMERMANS MARTIN24BEL1:26:521:27:405:35 10.75180sen437600HOEILAART
403.2556DEFLEUR KÉVIN31BEL1:26:251:27:455:36 10.74181sen439605FOSSES LA VILLE
404.593DEMOULIN JOSE70BELBAIL RUN1:27:141:27:475:36 10.735ve4440595EVREHAILLES
405.3093VAN CAMP JEAN-FRANÇOIS43BEL1:27:371:27:475:36 10.73124ve1441591SOMBREFFE
406.513DUFAUX RAPHAEL49BEL1:26:441:27:485:36 10.73125ve1442600FLOREFFE
407.2585LIZEN ERIC61BELVIVAQUA1:26:351:27:495:36 10.7318ve3443601
408.743RATINCKX MICHEL59BELRIWAHERMATH1:27:341:27:555:36 10.7274ve2444590BIERGES
409.3358SGARD VINCENT42FRAZATOPEK NAMUR1:27:051:27:555:36 10.72126ve1445595JAMBES
410.2735HUBERT CHRISTOPHE52BEL1:27:421:27:565:37 10.7175ve2446589
411.3022LAMY SEBASTIEN41BEL1:27:281:27:575:37 10.71127ve1447591BRAIBANT
412.2710MEURISSE GUILLAUME27BEL1:27:181:28:015:37 10.70182sen448592
413.3943WARNIER ALEXANDRE35BELJAMES1:27:431:28:025:37 10.70183sen449588WIERDE
414.2667ETIEN CHRISTOPHE40BELRUNNIN'JC RONVAU1:27:551:28:075:37 10.69128ve1450585GREZ-DOICEAU
415.2608MATAGNE PIERRE-YVES33BEL1:27:271:28:085:37 10.69184sen451590NAMUR
416.3053GALLEZ BENOIT37BELJCPMF RAMILLIES1:27:171:28:145:38 10.68185sen452591HUPPAYE
417.3125DELFOSSE THOMAS36BELPAZAPA1:27:181:28:155:38 10.67186sen453591LES BOSCAILLES
418.3179DETRY MILTON26BEL1:27:341:28:165:38 10.67187sen454588LOUVAIN LA NEUVE
419.517KOLP CHRISTIAN62BELET ENGHIEN1:28:051:28:175:38 10.6719ve3455582HORRUES
420.2586FAYS NICOLAS36BEL1:27:461:28:215:38 10.66188sen456585BONNEVILLE
421.3797JACQUEMIN PATRICK51BEL1:28:111:28:255:38 10.6676ve2457580HANNUT
422.3399HAUTEKEER JEAN-PAUL51BEL1:28:031:28:255:38 10.6577ve2458581VERLAINE
423.2505ABEELS THIERRY48BELJAMES LOUVAIN LA NEUVE1:27:471:28:265:38 10.65129ve1459584
DNF: abandon; DSQ: disqualifié; Vitesse en km/h
08/03/2021 - 04:29 - 881 Entrées
ChronoRace - Electronic Timing SPRL
http://www.chronorace.be

Page 9 / 18  
La Printanière
Par sexe
M
Erpent, 13/02/2016, BEL
Delhalle - 15.7km - Classement
15.7km 
Catégorie
PosNrNomAgeIOCLigueEquipeRéelTempsTkmMoy.RangNomScrPtsLocalité
424.2701TAMINIAUX JEAN-FRANÇOIS42BELALSTOM TRANSPORT1:27:421:28:295:39 10.65130ve1460585
425.3100SALAZAR GAJARDO SAMUEL31BEL1:28:131:28:335:39 10.64189sen462579JAMBES
426.2587ROUFOSSE SEBASTIEN33BEL1:27:211:28:355:39 10.64190sen463588
427.580HOMBROUX MARCEL63BELHANNUT JOG1:27:501:28:365:39 10.6320ve3464582MONTENAKEN
428.599LOICQ ADRIEN32BELJCPMF AISEAU1:28:131:28:365:39 10.63191sen465578ROSELIES
429.544ROCHUS DAVID34BEL1:27:581:28:365:39 10.63192sen466580PIÉTRAIN
430.2576WIBRIN BERTRAND31BEL1:27:531:28:375:39 10.63193sen467581ERPENT
431.2714CALDERS RUDY51BEL1:28:301:28:375:39 10.6378ve2468574AARSCHOT
432.3583DENIS OLIVIER55BELUSBW1:28:071:28:385:39 10.6379ve2469578
433.3390CZENKI JUSTIN27BEL1:28:241:28:395:39 10.63194sen470574AUVELAIS
434.3574GERARD XAVIER32BELPROVINCE DE NAMUR1:27:571:28:405:39 10.63195sen471579
435.3756DELVAUX THIERRY54BELNÉANTNÉANT1:28:371:28:415:39 10.6280ve2474571HANNUT
436.3925MATHIEU JEAN-POL54BELJCCS1:28:171:28:435:40 10.6281ve2475574RIENNE
437.2567VANTO GAETANO38BELJACO1:28:221:28:505:40 10.61196sen477573PÉRONNES-LEZ-BINCHE
438.3847HENRY SEBASTIEN42BEL1:28:161:28:525:40 10.60131ve1478574GESVES
439.3226FRIPIAT BERNARD44BEL1:27:551:28:555:40 10.59132ve1479577JAMBES
440.3537CUVELIER GILLES24BELTORTUES MESLINOISES1:28:311:28:565:40 10.59197sen480570
441.3126RANDALL CHRISTOPHER57GBRRUN4VILLERS1:28:071:28:575:40 10.5982ve2481574SART-DAMES-AVELINES
442.3938DELPIERRE MATTHIEU36BEL1:28:011:28:595:41 10.59198sen482575VERDUN
443.3593MATHY JEAN-LUC63BELRCNAMUR1:29:021:29:045:41 10.5821ve3484564NAMUR
444.2521EDEBOUW PHILIPPE59BELGERPINNES & CO1:29:001:29:065:41 10.5783ve2485564AISEAU
445.3073HUBERT BRUNO37BEL1:28:391:29:085:41 10.57199sen486567NAMUR
446.3187LALLEMANT JOACHIM30BEL1:28:041:29:105:41 10.57200sen487573VIELSALM
447.3818PAGÈS JEAN-YVES40BELBVCL1:28:361:29:125:41 10.56133ve1488567LOYERS
448.100BERTRAND NICOLAS32BELRRTCHATELET1:28:441:29:125:41 10.56201sen489566BOIS-DE-VILLERS
449.3050DUMONT JEAN LOUIS60BELCSJR LESVE1:28:321:29:185:42 10.5522ve3490567PROFONDEVILLE
450.304GRZESINSKI BERNARD55BELJOG'IN ATTITUDE1:28:341:29:195:42 10.5584ve2491567FLEMALLE
451.3929COOSEMANS HERVÉ38BEL1:28:131:29:205:42 10.55202sen492570MEEFFE
452.3972HAINAUT JEAN-BAPTISTE31BEL1:27:591:29:215:42 10.54203sen493572NAMUR
453.3966BOUILLARD JULIEN32BELJOASSIN TRAIL TEAM1:28:271:29:265:42 10.53204sen495566NAMUR
454.824GOBERT PASCAL44BEL1:28:521:29:305:43 10.53134ve1499561LEUZE
455.3315MICHEL OLIVIER35BELGAG1:28:451:29:335:43 10.52205sen500562GRAND MANIL
456.152PAGE THIBAUT35BEL1:29:031:29:345:43 10.52206sen501559INCOURT
457.3567GAMBY EMMANUEL40BEL1:28:131:29:345:43 10.52135ve1502567FLOREFFE
458.2519ZICOT GÉRARD54BELSPEEDS CLUB NAMUR1:29:191:29:395:43 10.5185ve2503556EMINES
459.992LETHE VINCENT56BELRONVAU1:29:231:29:415:43 10.5186ve2504554TOURINNES-SAINT-LAMBERT
460.3127VAN ENDE JÉRÉMIE40BEL1:29:031:29:425:43 10.50136ve1505558EGHEZÉE
461.3896BERNARD JEAN50BELFLEU1:28:531:29:455:43 10.5087ve2506559ROSELIES
462.3072LÉONET FRANÇOIS34BEL1:29:271:29:465:44 10.49207sen507553GRAND-LEEZ
463.3159BORREUX MICHAEL45BELRAPTOR TEAM1:29:461:29:485:44 10.49137ve1508549FELUY
464.3751VAN LOO ROGER66BELHOOIBERGLOPERS1:29:381:29:495:44 10.4923ve3509550BONHEIDEN
465.3754GILAIN PHILIPPE58BELRCNAMUR1:29:331:29:525:44 10.4888ve2510551WEPION
466.498HEYNDRICKX JAN54BELHAMURABI1:29:171:29:535:44 10.4889ve2511553BERTEM
467.3551COSTANZO ERASMO33BELBOUFFIOLS1:28:281:29:555:44 10.48208sen512562VILLERS POTERIE
468.3589WILLAME DIDIER50BELTURBO1:29:231:30:055:45 10.4690ve2514552
469.3524VAN HAUWE THIBAUT28BELBOUFFIOLS1:28:371:30:065:45 10.46209sen515559
470.3892LE GAL BENOIT47FRACEFOR NAMUR1:29:551:30:075:45 10.45138ve1516545FLOREFFE
DNF: abandon; DSQ: disqualifié; Vitesse en km/h
08/03/2021 - 04:29 - 881 Entrées
ChronoRace - Electronic Timing SPRL
http://www.chronorace.be

Page 10 / 18  
La Printanière
Par sexe
M
Erpent, 13/02/2016, BEL
Delhalle - 15.7km - Classement
15.7km 
Catégorie
PosNrNomAgeIOCLigueEquipeRéelTempsTkmMoy.RangNomScrPtsLocalité
471.3335DE SAEDELEER PATRICK66BELSMAC1:30:101:30:135:45 10.4424ve3517543LOYERS
472.2713DEBATTY MATHIEU35BELHAMOIS LES RANDOS1:29:581:30:225:46 10.43210sen518545BEEZ
473.3089NEYT NICOLAS38BEL1:29:591:30:285:46 10.41211sen520544BARVAUX
474.3576BEAUJEAN GAUTIER37BEL1:29:511:30:305:46 10.41212sen522544JAMBES
475.3913COLINET BENOÎT44BEL1:29:331:30:335:47 10.40139ve1523547JAMIOLLE
476.3057CLABOTZ MATHIEU30BELZATAC NAMUR1:29:431:30:355:47 10.40213sen524545ERPENT
477.607TOUSSAINT PATRICK47BELSCBUTG1:29:551:30:385:47 10.40140ve1526543WAIMES
478.3313DECRETON CÉDRIC43BEL1:30:061:30:405:47 10.39141ve1528540BRUXELLES
479.662NOSSAINT PHILIPPE56BELRCNAMUR1:30:261:30:435:47 10.3991ve2529536ANDENNE
480.3345LAMBEAUX OLIVIER37BEL1:30:171:30:465:47 10.38214sen530537MARCHOVELETTE
481.3402BERTUZZI FRANÇOIS27BELSPW RUNNING1:30:341:30:485:47 10.38215sen531535SPONTIN
482.653SERON BENOIT55BEL1:30:161:30:495:48 10.3792ve2532537MALONNE
483.2584TRAUSCH FABRICE41BEL1:30:251:31:015:48 10.35142ve1535535
484.3591JOSSE PHILIPPE48BEL1:28:511:31:015:48 10.35143ve1536551
485.3753ALBERS FRÉDÉRIC50BEL1:30:541:31:025:48 10.3593ve2537529NOVILLE SUR MEHAIGNE
486.3784JAVAUX MAXIME39BELQ3TLONGPRÉ RUNNERS1:30:351:31:065:49 10.34216sen538532WAGNELEE
487.3171RAEVENS NICOLAS38BEL1:30:191:31:105:49 10.33217sen539535FLOREFFE
488.3411HANQUET GUILLAUME31BELRONVAU1:31:091:31:125:49 10.33218sen541526GEMBLOUX
489.3228DEKAISE REMY27BELGTC1:31:081:31:135:49 10.33219sen542525GEMBLOUX
490.3331CHALLE RENAUD50BELUTT1:30:551:31:135:49 10.3394ve25435271140
491.3043FRIPPIAT FREDERIC48BELOCAN1:30:401:31:175:49 10.32144ve15445295101
492.3056LEROY JEAN-MICHEL47BELJCPMF RAMILLIES1:30:561:31:205:49 10.32145ve1545527GRAND-ROSIERE
493.3910RUBAY RAPHAEL45BEL1:30:341:31:215:50 10.31146ve1546530DAVE
494.462PONCELET ETIENNE46BEL1:30:241:31:235:50 10.31147ve1547532RIENNE
495.3508LESTRATE OLIVIER36BEL1:30:391:31:245:50 10.31220sen548529
496.3133VANCUTSEM BENOÎT41BEL1:31:191:31:245:50 10.31148ve1549522VEDRIN
497.426QUINET BERNARD64BELFLEU1:31:161:31:385:51 10.2825ve3550522GILLY
498.2528DA CRUZ JEAN60BEL1:31:121:31:445:51 10.2726ve3551522NAMUR
499.3258WIJNGAARDEN GUIDO44NLD1:31:311:31:465:51 10.27149ve1553519TELLIN
500.3401SCHILTZ FRÉDÉRIC39BEL1:31:121:31:515:51 10.26221sen554521SOMBREFFE
501.3955PAQUET ERIC30BEL1:31:421:31:525:52 10.26222sen555516LIGNY
502.3903FALISE MATTHIEU30BEL1:31:431:31:525:52 10.26223sen556515CORBAIS
503.2726HORÉ BENOÎT45BEL1:30:441:31:535:52 10.25150ve1557525WEPION
504.3870BEGUIN OLIVIER36BEL1:30:551:31:565:52 10.25224sen558523BONINNE
505.3771BÉCUE GUILLAUME40BEL1:31:381:32:005:52 10.24151ve1559516JAMBES
506.3545PIERRE QUENTIN29BELCSE1:30:371:32:095:53 10.22225sen560526
507.3113ETIENNE VINCENT48BEL1:31:391:32:105:53 10.22152ve15615155300 ANDENNE
508.3558MASQUELIN THIERRY54BELACCRORUN1:31:541:32:125:53 10.2295ve2562512GEMBLOUX
509.2605FEYS JEAN LOUIS53BELFURALOPERS1:31:491:32:135:53 10.2296ve2563512WAVRE
510.270VOLON PATRICK57BELMPW1:31:591:32:145:53 10.2197ve2564511LIEGE
511.3891HALLET PHILIPPE45BELLE JOUR1:31:371:32:185:53 10.21153ve1565514WOMMERSOM
512.804DUSSART FABRICE53BEL1:32:141:32:245:54 10.2098ve2566508ROCHEFORT
513.3964MARCHAL VINCENT43BELPDOPDO TEAM1:32:001:32:285:54 10.19154ve1567510ERPENT
514.3538HARMEL SEBASTIEN38BEL1:31:361:32:295:54 10.19226sen568513
515.3256TIELEMANS PHILIPPE55BELRUN4VILLERS1:31:421:32:335:54 10.1899ve2569512VILLERS LA VILLE
516.604SEYNAEVE BENOIT41BEL1:32:171:32:345:54 10.18155ve1570506FERNELMONT
517.3155GERMAIN LUDOVIC33BELACL1:32:261:32:355:54 10.18227sen571504EGHEZÉE
DNF: abandon; DSQ: disqualifié; Vitesse en km/h
08/03/2021 - 04:29 - 881 Entrées
ChronoRace - Electronic Timing SPRL
http://www.chronorace.be

Page 11 / 18  
La Printanière
Par sexe
M
Erpent, 13/02/2016, BEL
Delhalle - 15.7km - Classement
15.7km 
Catégorie
PosNrNomAgeIOCLigueEquipeRéelTempsTkmMoy.RangNomScrPtsLocalité
518.614MONFORT JOSE63BELWRC LIERNEUX1:32:221:32:365:54 10.1727ve3572504VIELSALM
519.3354BIERLAIRE NICOLAS39BELBOUFFIOLS1:31:091:32:385:54 10.17228sen573517CHATELINEAU
520.2589DEBAST SEBASTIEN37BEL1:32:051:32:425:55 10.16229sen576506BONNEVILLE
521.3260WIJNEN LUC55BELRIWALBFA1:32:061:32:435:55 10.16100ve2578505LIMELETTE
522.3920MAMERE JACQUES65BELAL COPETTE1:32:431:32:525:55 10.1428ve3579499VEDRIN
523.3347D'ANTUONO MICHELE48ITAHRC1:32:121:33:015:56 10.13156ve1581504HABAY-LA-NEUVE
524.3010MERCIER DOMINIQUE49BELSMAC1:32:461:33:045:56 10.12157ve1582498VEDRIN
525.454MAURO CALOGERO76BELSERSER ATHL1:32:491:33:045:56 10.126ve4583497SERAING
526.2517THIS STEVE32BEL1:31:461:33:055:56 10.12230sen584507FLORENNES
527.3018TIXHON AXEL44BEL1:32:421:33:065:56 10.12158ve1585497DINANT
528.923CEULEMANS NICOLAS46BELANTILOB1:32:571:33:125:57 10.11159ve1586495INCOURT
529.2607NAUTS THIERRY34BELJCCS1:32:141:33:155:57 10.10231sen587501GESVES
530.3357BODY OLIVIER40BELCARACO' TRAILERS1:32:211:33:155:57 10.10160ve1588500DURNAL
531.3095ACCARAIN PASCAL56BELCEPAL1:33:041:33:185:57 10.10101ve2589493BRUXELLES
532.386SIMONS RUDY46BEL1:32:441:33:215:57 10.09161ve1590496LOENHOUT
533.3362NENNEN ARNAUD53BELSMACSMAC1:32:511:33:325:58 10.07102ve2592494GELBRESSEE
534.2674JACQUET MATHIAS32BEL1:32:311:33:395:58 10.06232sen593497ANGLEUR
535.3279DEHON MICHEL57BELACLOACLO1:32:251:33:395:58 10.06103ve2594497LA LOUVIÈRE
536.2518VAUDRE THOMAS17BELRCNAMUR1:33:011:33:415:58 10.065esp595491
537.3059NONCLERCQ OLIVIER38BEL1:32:341:33:435:59 10.05233sen596496DÎNANT
538.3115SALMIN PIERRE34BELLES TONTONS1:33:001:33:475:59 10.05234sen597491JAMBES
539.3983NOLLEVAUX HUGUES52BELORWAL1:33:261:33:505:59 10.04104ve2598486GELBRESSEE
540.3081HUART NICOLAS43BELORWAL1:32:531:33:515:59 10.04162ve1599491RANSART
541.3403GERREBOS YVES55BELORWAL1:32:541:33:515:59 10.04105ve2600491MALONNE
542.3382HANOTTE JEAN56BELRUNPRO1:33:321:33:545:59 10.03106ve2601484NAMUR
543.2743TADLI YOUNESS21BEL1:32:241:33:555:59 10.03235sen603495CHASTRE
544.2711COURTOIS ANTOINE18BEL1:32:411:33:586:00 10.036esp604492GÉROMPONT
545.2554DE PESSEMIER MICHEL59BELACG1:32:441:34:046:00 10.01107ve2605491BRAKEL
546.3269DENIS ANDREW27BEL1:33:411:34:106:00 10.00236sen607481ERPENT
547.3404LALLEMANT JONATHAN36BEL1:33:071:34:126:00 10.00237sen608487TROIS-PONTS
548.3543HENRY HERVE39BEL1:33:231:34:146:01 10.00238sen610483
549.3118STERCKX LAURENT37BEL1:33:061:34:146:01 10.00239sen611486PERWEZ
550.3958KAMP OLIVIER42BELDSK ATTITUDE1:32:551:34:146:01 10.00163ve1612488WAVRE
551.3957GALET CHRISTOPHE40BEL1:33:371:34:146:01 10.00164ve1613480HOUYET
552.3991DENIS NICOLAS32BEL1:33:341:34:166:01 9.99240sen614480NANINNE
553.2595LORSIGNOL PIERRE63BEL1:34:061:34:216:01 9.9829ve3615475FLEURUS
554.933LAMBERT FRANCOIS29BELRONVAU1:33:181:34:226:01 9.98241sen616483PERWEZ
555.2623BOONE FRANÇOIS39BEL1:33:421:34:276:01 9.97242sen618478SCLAYN
556.3901DIDIER AMBROISE55BEL1:33:391:34:286:01 9.97108ve2619478AUBANGE
557.3939FORGET RÉGINALD50BEL1:33:251:34:316:02 9.97109ve2620480BELGRADE
558.2737VERBEEK JEAN-LUC62BEL1:33:331:34:336:02 9.9630ve3621478
559.3501MATTART DENIS28BELENJAMBEE1:33:021:34:366:02 9.96243sen622483
560.3562GREGOIRE DENIS45BEL1:33:581:34:406:02 9.95165ve1623474
561.561HAINAUT CHARLES57BEL1:34:121:34:426:02 9.95110ve2624471GERPINNES
562.83PEETERS QUENTIN37BELSPTWAVRE1:33:441:34:466:03 9.94244sen626475LIMAL
563.3139QUIRINY DOMINGO32BEL1:34:331:34:486:03 9.94245sen627467MARCHE EN FAMENNE
564.3952BROOS SÉBASTIEN27BEL1:34:021:34:486:03 9.94246sen628472MOZET
DNF: abandon; DSQ: disqualifié; Vitesse en km/h
08/03/2021 - 04:29 - 881 Entrées
ChronoRace - Electronic Timing SPRL
http://www.chronorace.be

Page 12 / 18  
La Printanière
Par sexe
M
Erpent, 13/02/2016, BEL
Delhalle - 15.7km - Classement
15.7km 
Catégorie
PosNrNomAgeIOCLigueEquipeRéelTempsTkmMoy.RangNomScrPtsLocalité
565.3590PEIFFER LAURENT37BEL1:34:471:34:546:03 9.93247sen629464HACHY
566.3554BALBEUR JEAN FRANÇOIS41BELSKY RUNNER TEAM1:33:511:34:546:03 9.93166ve1630473MARCHE LES DAMES
567.3785GODFURNON FABRICE36BEL1:34:111:34:556:03 9.93248sen631470COURRIÈRE
568.3077CAMPERS GERALD56BEL1:33:531:34:576:03 9.92111ve2632472SAINT-MARC
569.523MACHADO ANTONIO64PRT1:33:591:35:046:04 9.9131ve3635470GEMBLOUX
570.3086ALBICOCCO DAVID43BELZATOPEK ACADÉMIE NAM1:34:521:35:116:04 9.90167ve1637461GESVES
571.3843VANDEZUUBE LUC60BEL1:34:541:35:126:04 9.9032ve3638460ERPENT
572.49DEGROOT JEAN68BELFCHAHANNUT JOG1:34:591:35:156:04 9.8933ve3640459HANNUT
573.2597NOEL ADRIEN24BELARCH1:35:141:35:166:05 9.89249sen641456
574.3232STIERNON GRÉGORY35BEL1:35:171:35:176:05 9.89250sen642455COUR-SUR-HEURE
575.429DENEFFE PHILIPPE55BELJC HOUYET1:34:311:35:186:05 9.89112ve2643463HOUYET
576.3926PEIJMANS DAVID41BELGAG1:34:321:35:196:05 9.88168ve1644462GRAND-LEEZ
577.3263LOBERT YVES56BEL1:34:481:35:206:05 9.88113ve2645459UCCLE
578.199ALAIME SEBASTIEN44BELSPTWAVRE1:34:201:35:236:05 9.88169ve1646464LIMAL
579.3268DE BROUWER JACQUES57BELGAG1:34:421:35:256:05 9.87114ve2647460GRAND LEEZ
580.871COUNSON MANUEL36BEL1:34:361:35:266:05 9.87251sen648461AMBERLOUP
581.2721THEUNIS OLIVIER44BEL1:34:181:35:286:05 9.87170ve1649463COGNELEE (NAMUR)
582.2658VERBEECK STEVE32BEL1:34:591:35:286:05 9.87252sen650456SOYE
583.3869TILMANS RENAUD48BEL1:35:031:35:306:05 9.86171ve1651455MALONNE
584.3351LUYCKX JACQUES47BELFOULÉE PERWÉZIENNE1:34:301:35:376:06 9.85172ve1653460PERWEZ
585.3960VANBENEDEN HENRI34BEL1:35:291:35:376:06 9.85253sen654450JAMBES
586.3013DE NEUNHEUSER JEAN-LOUIS50BEL1:34:521:35:386:06 9.85115ve2655456PIETON
587.810BAUTHIER CHRISTIAN62BELFORESTIERE1:34:341:35:406:06 9.8534ve3656459GHLIN (MONS) BELGIQUE
588.849ABRAHAM LUC59BELUSBWUSBW RT1:34:271:35:416:06 9.85116ve2657459WATERLOO
589.3950PREVE SAMUEL42BEL1:34:401:35:416:06 9.84173ve1658457BEAURAING
590.3172FRIPIAT DIDIER39BEL1:35:471:35:476:07 9.83254sen659446NATOYE
591.3911PIETTE MICHAEL44BEL1:34:481:35:486:07 9.83174ve1660455AGIMONT
592.995GREVISSE DAVID42BELRONVAU1:35:011:35:486:07 9.83175ve1661453DION VALMONT
593.3178CARLIER PIERRE16BEL1:34:381:35:546:07 9.827esp662456WÉPION
594.3526SERVAIS OLIVIER35BEL1:35:311:35:546:07 9.82255sen663447
595.784BIENFAIT BENJAMIN33BEL1:35:091:35:576:07 9.82256sen664450QUEVY-LE-PETIT
596.3511MOREAU JEAN-GERARDBEL1:35:241:36:046:08 9.812xxx666448
597.2513DESCHAMPS MARTIN50BEL1:35:481:36:056:08 9.80117ve2667443
598.3034MEZIANI MOHAND49FRACSFMYSTERE1:35:241:36:106:08 9.80176ve1669447BRUXELLES
599.3359HERMAN RODRIGUE46BELZATOPEZATOPEK NAMUR1:35:201:36:106:08 9.80177ve1670447WÉPION
600.261RIESTRA JOSE MANUEL46ESPMYSTERE1:35:241:36:106:08 9.80178ve1671446BRUXELLES
601.3881GILBERT PHILIPPE53BEL1:35:581:36:106:08 9.80118ve2672440LOUVAIN-LA-NEUVE
602.3830LEMAIRE NICOLAS35BEL1:35:511:36:106:08 9.80257sen674441GEMBLOUX
603.3324BURLET JEAN-CHRISTOPHE42BEL1:35:251:36:196:09 9.78179ve1676445BOI-DE-VILLERS
604.726WILK JANUSZ56BEL1:36:141:36:216:09 9.78119ve2678436UCCLE
605.2647LEJEUNE BENOIT45BEL1:36:261:36:266:09 9.77180ve1679434ANDENNE
606.3355DELMOTTE MARTIN37BELSPT WAVRE1:35:271:36:316:09 9.76258sen681443KORTENBERG
607.2704BRUGGEMAN PIETER-JAN25BEL1:35:451:36:336:09 9.76259sen682439
608.3091PIERMAN BAUDOUIN58BELAG RUN1:36:061:36:406:10 9.75120ve2683436CORROY-LE-GRAND
609.616NOEL GERARD64BELARCH1:35:521:36:436:10 9.7435ve3684438NATOYE
610.3146FRIPPIAT GAËTAN44BEL1:35:551:36:446:10 9.74181ve1685437NAMUR
610.3071KLEINKENBERG ALAIN55BELARCH1:35:521:36:446:10 9.74121ve2685437MARCHE-EN-FAMENNE
DNF: abandon; DSQ: disqualifié; Vitesse en km/h
08/03/2021 - 04:29 - 881 Entrées
ChronoRace - Electronic Timing SPRL
http://www.chronorace.be

Page 13 / 18  
La Printanière
Par sexe
M
Erpent, 13/02/2016, BEL
Delhalle - 15.7km - Classement
15.7km 
Catégorie
PosNrNomAgeIOCLigueEquipeRéelTempsTkmMoy.RangNomScrPtsLocalité
612.3509HENROTEAUX DANIEL39BELOCAN1:36:021:36:446:10 9.74260sen687435ANDENNE
613.3277PILI JACQUES43ITAACLO1:35:331:36:456:10 9.74182ve1688440MORLANWELZ
614.3333MARCHAL PATRICK55BEL1:35:321:36:486:10 9.73122ve2690439GEMBLOUX
615.124LE CHARLIER BAUDOUIN66BEL1:36:201:36:526:11 9.7336ve3691431NAMUR
616.3191HOYOIS BERNARD47BELGAG1:35:511:36:586:11 9.71183ve1694435BAUDOUR
617.2671SCOUPPE GERY54BELTTB1:35:511:37:006:11 9.71123ve2696434BRAINE-L'ALLEUD
618.2722AMBROISE VINCENT50BELRTH1:36:151:37:046:11 9.71124ve2697430
619.2532JACOBS PIERRE40BEL1:36:181:37:046:11 9.71184ve1698429
620.3875DECHAMPS HENRI54BEL1:37:051:37:056:12 9.70125ve2699BONEFFE
621.3536COIBION OLIVIER46BEL1:36:491:37:086:12 9.70185ve1700424
622.3755MARCHAL ERIC51BELMATAF1:36:151:37:086:12 9.70126ve2701430SAINT SERVAIS
623.2698HOUGARDY SERGE51BEL1:36:471:37:106:12 9.70127ve2702424
624.2573DODRÉMONT BENOIT45BELANTILOB1:36:141:37:146:12 9.69186ve1704429COURT-SAINT-ETIENNE
625.846POELMANS DOMINIQUE55BELRCNAMUR1:36:411:37:176:12 9.68128ve2705424EVREHAILLES
626.3339PIRLOT ANDRÉ65BELEPIDEMIE1:35:561:37:186:12 9.6837ve3706431REMICOURT
627.3548DAUVIN BENJAMIN40BELJCCS1:37:091:37:206:12 9.68187ve1707419PONDROME
628.3408DERCLAYE ALAIN43BEL1:36:201:37:276:13 9.67188ve1710426MEEFFE
629.993LELOUP STEPHAN62BEL1:36:561:37:296:13 9.6638ve3711420ROSIERES
630.2619TASIAUX ADRIAN41BELCORBAIS1:37:101:37:316:13 9.66189ve1713417CORBAIS
631.2707BIENFAIT QUENTIN38BEL1:36:491:37:366:13 9.65261sen715420BRAY
632.411LUYPAERT ARMAND66BELGRIM1:37:151:37:376:14 9.6539ve3716416MEISE
633.3104FOCQUET NICOLAS30BEL1:36:421:37:396:14 9.65262sen717421BELGRADE
634.2593REUSS BENOIT55BELTENDONS1:37:181:37:426:14 9.64129ve2719414
635.3775DALCQ JEAN-CLAUDE53BEL1:36:231:37:446:14 9.64130ve2720423WAVRE
636.3916MALACHE CÉDRIC41BEL1:37:481:37:486:14 9.63190ve1721409AISCHE-EN-REFAIL
637.3353TREVISAN DAVID43BEL1:36:201:37:506:14 9.63191ve1722422BOUFFIOULX
638.516HUNIN STEPHANE34BEL1:37:071:37:556:15 9.62263sen727414WOLUWE-SAINT-LAMBERT
639.3054VANCOLEN YANNICK51BELJCPMF RAMILLIES1:37:341:37:586:15 9.62131ve2728409RAMILLIES
640.2606HEYMANS JEAN PHILIPPE55BEL1:37:371:38:026:15 9.61132ve2729408SAINT-GILLES
641.3993POCHET FREDERIC45BEL1:36:561:38:096:16 9.60192ve1731415BOLINNE
642.3813DONAY VINCENT43BEL1:37:441:38:196:16 9.58193ve1733406WARISOULX
643.900PIGNOLET PATRICE54BELOCAN1:36:561:38:226:16 9.58133ve2734414GESVES
644.3822DEWEZ ALEX60BEL1:37:021:38:276:17 9.5740ve3736412ERPENT
645.3904DECEULENEER CÉDRIC31BEL1:37:311:38:336:17 9.56264sen738407GODINNE
646.3033BOISSON GILLES32FRAMYSTERE1:37:481:38:356:17 9.56265sen739404BRUXELLES
647.406DELATTE OLIVIER52BELCSFMYSTERE1:38:031:38:356:17 9.56134ve2740401ANDERLECHT
648.3141PERINI GREGORY31BEL1:37:191:38:366:17 9.55266sen741408HAVRÉ
649.755VAN HEULENBERGHE FRANK60BEL1:37:591:38:366:17 9.5541ve3742401GENT
650.3287DEGROOTE NICOLAAS41BELNAC NIVELLES1:38:211:38:376:17 9.55194ve1743397BRUXELLES
651.3883BOUTSEN YVES56BELACCRORUN1:38:241:38:426:18 9.55135ve2744397JAMBES
652.2542MARTINET RAOUL45BEL1:37:321:38:456:18 9.54195ve1746404
653.3921BILLAT ETIENNE56BEL1:37:541:38:546:18 9.53136ve2748400BOUGE
654.3105PLANCKAERT OLIVIER39BEL1:37:451:38:566:19 9.52267sen749401SOMBREFFE
655.597MATHIEU JEAN-PIERRE60BELESM1:38:361:39:046:19 9.5142ve3751393MONTIGNY-LE-TILLEUL
656.3859BOVY QUENTIN45BELOCANOCAN1:38:531:39:106:19 9.50196ve1754389SEILLES
657.3273GILLARD STEPHANE39BEL1:38:531:39:126:20 9.50268sen756389JURBISE
658.318STICKER JOHAN57BELOXYGENE1:37:591:39:236:20 9.48137ve2758397BIERCEE
DNF: abandon; DSQ: disqualifié; Vitesse en km/h
08/03/2021 - 04:29 - 881 Entrées
ChronoRace - Electronic Timing SPRL
http://www.chronorace.be

Page 14 / 18  
La Printanière
Par sexe
M
Erpent, 13/02/2016, BEL
Delhalle - 15.7km - Classement
15.7km 
Catégorie
PosNrNomAgeIOCLigueEquipeRéelTempsTkmMoy.RangNomScrPtsLocalité
659.3078ABRAS GEOFFREY32BEL1:38:111:39:246:20 9.48269sen7593945000 - NAMUR
660.3082BASTIN JEAN CHARLES36BELAXA TEAM1:38:431:39:296:21 9.47270sen760389SOMBREFFE
661.3809PINDEVILLE CHRISTIAN68BELRIWA1:39:081:39:326:21 9.4743ve3761385WAVRE
662.3092BELLE JEAN-MICHEL46BEL1:38:441:39:396:21 9.45197ve1764388BOIS-DE-VILLERS
663.2522PIRSON DAVID41BELTEAM MARCEL1:38:511:39:466:22 9.44198ve1765387HANRET
664.3578VAN CAPPELLEN GIJS36BEL1:38:251:39:536:22 9.43271sen766390LEUVEN
665.3793DUCHESNE JULIEN27BEL1:39:321:39:586:23 9.42272sen767380WEPION
666.3819DOUTRELIGNE HERVÉ56BELRIWARIWA1:39:181:40:006:23 9.42138ve2769381GENVAL
667.3968GOLENVAUX NICOLAS39BEL1:38:321:40:006:23 9.42273sen770388NAMUR
668.3015ERNOULD ALAIN51BELJOG HERMETON1:39:501:40:026:23 9.42139ve2771375ROMEDENNE
669.2683DESPAS GEOFFREY40BEL1:39:421:40:146:24 9.40199ve1774376
670.3798BALFROID YVAN46BEL1:39:561:40:146:24 9.40200ve1775374BOUGE
671.3515THIROT JOEL56BEL1:39:381:40:226:24 9.39140ve2777376
672.3811DEGAUCQUIER OSCAR40BELORWAL1:39:431:40:236:24 9.38201ve1778374GILLY
673.3276SANTOCONO GIROLAMO55ITAACLO1:39:251:40:386:25 9.36141ve2780377MORLANWELZ
674.2531ZEGERS ROLLAND60BEL1:40:001:40:416:25 9.3644ve3781371EVERE
675.71DE HERTOG DANIEL57BELGRIMAFRIT 71:39:591:40:416:25 9.36142ve2782371GRIMBERGEN
676.2638CAVALLARO ANTONINO39BEL1:39:561:40:526:26 9.34274sen783371
677.2640LECOCQ CEDRIC38BEL1:39:581:40:536:26 9.34275sen784371
678.3772MASSART VICTOR63BELLES BOUFFIOLS1:39:431:40:566:26 9.3345ve3786372COUILLET
679.2568HENRIOULLE JEROME21BEL1:40:191:40:576:26 9.33276sen787367CHÂTELET
680.643LEROUX JEAN-PIERRE67FRAJOGGANS1:40:151:40:596:26 9.3346ve3789367STROMBEEK-BEVER
681.3556LEMAIRE JEAN-MARC41BEL1:39:341:41:056:27 9.32202ve1790372TRAZEGNIES
682.3380DUPONT BAUDOUIN55BELZATTAC1:40:121:41:126:27 9.31143ve2791366BRUMAGNE
683.2515SAGLIER GERARD61BEL1:40:201:41:156:27 9.3147ve3793365
684.3816HOTAT MICHEL47BELJAMES1:40:251:41:236:28 9.29203ve1794364VILLERS-LA-VILLE
685.2686BARTIAUX ROGER64BEL1:41:041:41:356:29 9.2748ve3798356
686.3161NOEL MATTHIAS33BEL1:41:291:41:426:29 9.26277sen801352SAUVENIÈRE
687.383MAGOTTE OLIVIER44BELJAMES1:40:431:41:446:29 9.26204ve1802358OTTIGNIES
688.2690RUYSSEN ARNAUD35BEL1:40:441:41:596:30 9.24278sen803358
689.2644TORRES PASQUALE52BEL1:40:301:42:006:30 9.24144ve2804360AISEAU-PRESLES
690.3853SMETS PHILIPPE51BELCHARLETEAM1:41:361:42:026:30 9.23145ve2805349WANFERCÉE-BAULET
691.2530COOREMANS GUY50BELGTC1:41:531:42:056:31 9.23146ve2806346SOYE
692.166HOUNJE FREDDY62BEL1:41:331:42:086:31 9.2249ve3807349AUBEL
693.591DATTOLI CARLO54BEL1:41:181:42:096:31 9.22147ve2808352HUY
694.3855MALHERBE ALLAN36BEL1:41:051:42:136:31 9.22279sen809353PONTILLAS
695.3804VAN DEN KERKHOVE MICHAEL42BEL1:41:571:42:196:31 9.21205ve1810345ERPENT
696.3941MAHY DIDIER54BELRUN4FUN HAVELANGE1:40:521:42:196:32 9.21148ve2811354HAVELANGE
697.3987HUYGHEBAERT BRUNO47BELRUN4FUN1:40:541:42:216:32 9.21206ve1813354HAVELANGE
698.3969SLIMANI KARIM29BEL1:41:471:42:316:32 9.19280sen816345LOUVAIN-LA-NEUVE
699.526NORMAND DANIEL55BELJCCS1:41:491:42:326:32 9.19149ve2817344RIENNE
700.3568MOXHON HENRI49BELJ31:42:311:42:346:32 9.18207ve1818337SEILLES
701.692ROBERT MICHEL66BELBOUFFIOL G&1:41:461:42:426:33 9.1750ve3820344GERPINNES
702.3507WILLEMS FREDERIC42BELANS EN FORME1:42:131:42:556:34 9.15208ve1821339
703.603DAMIEN CLEMENT22BEL1:42:031:43:016:34 9.15281sen824340LOUFTEMONT
704.774TITART PAUL55BELRCBGSKBBFUNCLUB1:42:111:43:066:35 9.14150ve2825339BRUXELLES
705.2689GANTOIS GERALD49BELTRTS1:41:581:43:116:35 9.13209ve1826340
DNF: abandon; DSQ: disqualifié; Vitesse en km/h
08/03/2021 - 04:29 - 881 Entrées
ChronoRace - Electronic Timing SPRL
http://www.chronorace.be

Page 15 / 18  
La Printanière
Par sexe
M
Erpent, 13/02/2016, BEL
Delhalle - 15.7km - Classement
15.7km 
Catégorie
PosNrNomAgeIOCLigueEquipeRéelTempsTkmMoy.RangNomScrPtsLocalité
706.3584MALBECQ STEPHANE64BELRCNAMUR1:42:071:43:166:35 9.1251ve3827338
707.413LIVEMONT EMMANUEL55BELRRTCHATELET1:41:491:43:196:35 9.12151ve2829341SUARLEE
708.538DETRIXHE CHRISTOPHE40BELWAC1:43:241:43:486:37 9.08210ve1834325WAREMME
709.3153DUMONT SYLVAIN41BELJCPMF1:42:511:43:546:38 9.07211ve1837329WEPION
710.3230MAGEIN LOUIS26BEL1:42:291:43:596:38 9.06282sen840331LOUVAIN-LA-NEUVE
711.648WARGE EDDY47BELOCAN1:42:401:44:066:38 9.05212ve1843329ANDENNE
712.3011FLAMENT PHILIPPE53BELDIONCOURT1:43:041:44:086:38 9.05152ve2844325DION-VALMONT
713.424DRIESSENS PIERRE69BELSERUNNER1:43:501:44:176:39 9.0352ve3846318SERAING
714.251GODEFRIDI THIERRY65BELMARATHONIEN1:42:421:44:176:39 9.0353ve3847327RIXENSART
715.55ROBERTI DE WINGHE MAX61BELLACRONVAU1:43:051:44:176:39 9.0354ve3848324ARCHENNES
716.2723ELAERTS BENOIT50BELJEM'ACTIVE1:42:591:44:196:39 9.03153ve2849324SPY
717.732DE MEES MARC74BELHOOIBERGLOPERS1:43:541:44:246:39 9.027ve4850316RIJMENAM
718.73VERHOFSTADT CAMILLE71BEL1:43:491:44:246:39 9.028ve4851316MARBAIX-LA-TOUR
719.3889BRAMS HUGUES50BELJAMES1:43:461:44:276:40 9.02154ve2852317OTTIGNIES
720.91GEERAERTS JOS56BELCSFMYSTERE1:43:351:44:316:40 9.01155ve2854317BUIZINGEN
721.3281MICHEL PIERRE47BELMOTIVÉ DE METTET1:44:231:44:346:40 9.01213ve1856310DENÉE
722.3177BERGHMANS DENIS43BEL1:43:481:44:366:40 9.01214ve1857315TEMPLOUX
723.2547MIRGAUX RAPHAEL40BEL1:44:001:44:386:40 9.00215ve1859312
724.3004GODBILLE ROLAND49BELZATOPEK1:44:261:44:456:41 8.99216ve1861308JAMBES
725.3959BODNAR THOMAS38BEL1:43:441:45:036:42 8.97283sen866313BRUXELLES
726.3132OGER PASCAL49BEL1:43:451:45:036:42 8.97217ve1867312HUY
727.3389LAHAUT PHILIPPE54BELZATOPEK NAMUR1:43:541:45:096:42 8.96156ve2869310FAULX-LES-TOMBES
728.3044BINET LOIC31BEL1:44:081:45:116:42 8.96284sen871308HOUR
729.3394HANNESSE RUDY39BELC'OURS1:44:191:45:146:43 8.95285sen872306VIEUSART
730.3227HUGUES BERNARD47BEL1:44:001:45:276:43 8.93218ve1873308FRANIÈRE
731.746MEULEMEESTER PATRICK51BELJACO1:44:171:45:346:44 8.92157ve2876305MACQUENOISE
732.3842LAFONTAINE BENOÎT51BELJAMES1:44:501:45:476:45 8.91158ve2879299GRAND LEEZ
733.2539HENRY RENAUD32BEL1:44:591:45:486:45 8.90286sen880298
734.3781LAMBERT FRÉDÉRICK38BEL1:44:421:45:506:45 8.90287sen881300SPY
735.2540ANDRE PASCAL52BELJCPMF EGHEZÉE1:45:111:46:046:46 8.88159ve2884294TEMPLOUX
736.3553NEEFS BERT53BELSPORTIVA GELRODE1:46:141:46:146:46 8.87160ve2886285
737.3400LUXEN JEAN-PHILIPPE48BELLUXENWALKERNAGEOIS1:45:401:46:186:47 8.86219ve1887290GRAND-LEEZ
738.2524VOKAR ETIENNE69BELIRUN@WATERLOO1:45:591:46:246:47 8.8555ve3889286B-1410 WATERLOO
739.142FLÉMAL DANY55BELSPTWAVRE1:45:291:46:396:48 8.83161ve2892290WAVRE
740.3974DEMARTEAU MICKAEL34BELMIKE THE GREAT1:45:461:46:416:48 8.83288sen893287COURRIÈRES
741.948CLOSTER ALEXANDRE45BEL1:45:201:46:436:48 8.83220ve1894291MERTZIG
742.940MAAS STIJN39BEL1:45:181:46:456:48 8.82289sen898290LAKEN
743.3405BOUDRENGHIEN FREDERIC41BELRAPTOR'S TEAM1:45:381:46:476:49 8.82221ve1899287BOIS-DE-VILLERS
744.3165ROLAND OLIVIER41BEL1:45:371:46:476:49 8.82222ve1900286BELGRADE
745.3885DIELS ROBERT59BEL1:45:541:46:476:49 8.82162ve2901284BIERGES
746.153BAIKRICH GUY71BELRCB1:45:451:46:546:49 8.819ve4902285BRUXELLES
747.317GUIRCHE ALBERT64BELSPIBO1:46:451:46:586:49 8.8156ve3904275FEIGNIES
748.3341POGORZELEC ERIC56BEL1:46:111:47:046:50 8.80163ve2905280BONINNE
749.792BONTE PHILIPPE59BELJOGGANS1:46:261:47:326:51 8.76164ve2909276BRUXELLES
750.3084SÉCAT CÉDRIC39BEL1:47:221:47:366:52 8.76290sen911268JAMBES
751.3587KAUFMANN ALAIN64BELJOGGANS1:46:491:47:386:52 8.7557ve3912272
752.3581VASILOV DENIS41BELGAG1:47:121:48:166:54 8.70223ve1915268GEMBLOUX
DNF: abandon; DSQ: disqualifié; Vitesse en km/h
08/03/2021 - 04:29 - 881 Entrées
ChronoRace - Electronic Timing SPRL
http://www.chronorace.be

Page 16 / 18  
La Printanière
Par sexe
M
Erpent, 13/02/2016, BEL
Delhalle - 15.7km - Classement
15.7km 
Catégorie
PosNrNomAgeIOCLigueEquipeRéelTempsTkmMoy.RangNomScrPtsLocalité
753.3120WOLFF STEPHANE48BELAXA TEAM1:47:391:48:356:55 8.68224ve1917264MEUX
754.2613THIELENS PIERRE25BEL1:47:371:48:506:56 8.66291sen921263HINGEON
755.2529NICOLAS JOHAN41BELJCPMF F1:47:331:48:546:57 8.65225ve1922263
756.3407PIRAPREZ MANU35BEL1:47:481:48:556:57 8.65292sen925260HERON
757.3815GENDARME PHILIPPE51BEL1:48:041:49:016:57 8.64165ve2927257VEDRIN
758.738WILLEMS LUCAS55BEL1:47:481:49:056:57 8.64166ve2931258SAINT MARTIN
759.3173VAN PUT CEDRIC44BEL1:48:111:49:136:58 8.63226ve1932255NATOYE
760.3504PIRON OLIVIER47BEL1:48:231:49:206:58 8.62227ve1934253
761.208BOUTEFEU JACQUES56BELESMRRTCHATELET1:47:531:49:226:58 8.61167ve2935257FARCIENNES
762.3610BODART LUC51BEL1:48:111:49:306:59 8.60168ve2938253
763.3975RASE XAVIER34BELXAVIER THE GREAT1:49:341:49:346:59 8.60293sen940241MALONNE
764.3898GUSTIN BRUNO26BEL1:48:331:49:386:59 8.59294sen942249GEMBLOUX
765.3803CROMBOOM DANIEL68BELHOOIBERGLOPERS1:48:431:49:537:00 8.5758ve3944247WEERDE - BELGIEN
766.3948BOFFÉ FREDERIC42BELJCPMF SOMBREFFE1:48:431:50:007:01 8.56228ve1945247LIGNY
767.3329ROISEUX OLIVIER38BEL1:48:541:50:047:01 8.56295sen946245AMAY
768.3383BEULLENS PHILIPPE48BEL1:49:141:50:157:02 8.54229ve1947241FLAWINNE
769.2678DUBASIN STEVE31BEL1:49:181:50:157:02 8.54296sen948240
770.3528HONNOF PASCAL50BEL1:49:031:50:187:02 8.54169ve2949243
771.924GENICOT PASCAL54BELFOULEES PLAISIR1:49:261:50:207:02 8.54170ve2950239HERON
772.3986HENE OLIVIER44BEL1:49:281:50:247:02 8.53230ve1951239ERPENT
773.3544MATERNE NICOLAS37BEL1:49:561:50:257:02 8.53297sen952234
774.2516GLENISSON EDDY70BELLDLV1:50:221:50:437:04 8.5110ve4960228LAEKEN (BRU.)
775.3848KINARD ERIC56BELARCH1:49:211:50:467:04 8.50171ve2962236CINEY
776.931CIARMOLI JOSEPH54BELJAMES1:50:111:50:507:04 8.50172ve2963229BOTHEY
777.3174VANDENBROERE BENOIT36BEL1:49:231:50:587:05 8.49298sen965235GEMBLOUX
778.3912BOULANGER NICOLAS40BELDAS1:49:421:50:597:05 8.49231ve1966232AISCHE-EN-REFAIL
779.192GEUSKENS JEAN MARC52BEL1:49:591:51:007:05 8.49173ve2968229BRUXELLES
780.491BEAUDOT MARC57BEL1:50:511:51:077:05 8.48174ve2969221CINEY
781.3136LAMBILLON QUENTIN36BEL1:50:561:51:157:06 8.47299sen970221VEDRIN
782.3924ABRAS GUILLAUME30BEL1:50:111:51:227:06 8.46300sen972226FLOREFFE
783.3185TORRES GUERREIRO HUGO59BEL1:50:101:51:267:06 8.45175ve2974226ANNEVOIE
784.807SCAUT PIERRE31BELJC HSH1:51:301:52:027:09 8.41301sen980213HAM-SUR-HEURE
785.2709LEBLON MARC37BELVERTIGO1:50:591:52:057:09 8.41302sen981217
786.3946LEMAIRE FABRICE48BELJEM'ACTIVE1:50:591:52:207:10 8.39232ve1985216SPY
787.2654DE RIDDER ANTOINE16BEL1:51:471:52:207:10 8.398esp986209LOVERVAL
788.2583DELVAUX PHILIPPE49BELLES PUISSANTS WALLONS1:51:581:52:297:10 8.38233ve1990206SAINT-DENIS-BOVESSE
789.3170EVRARDS CHRISTOPHE42BEL1:51:051:52:307:10 8.37234ve1991213ANDENNE
790.3266VALLETTE LUC60BELARCH1:52:401:53:077:13 8.3359ve3998198ROCHEFORT
791.3114JACOBS PIERRE56BEL1:52:121:53:177:13 8.32176ve21000202BOSSIERE
792.3794DORMAL STEPHANE43BELJCPMF HERON1:52:291:53:207:14 8.31235ve11001199HÉRON
793.679MERCIER LUC58BELJAMES1:52:431:53:447:15 8.28177ve21004196LOUVAIN-LA-NEUVE
794.3841DE GREZ THIERRY57BELJAMES1:52:441:53:447:15 8.28178ve21005196LAHULPE
795.562HENZ HELMUTH77BELSCBUTG1:53:271:54:107:17 8.2511ve41008189BUTGENBACH
796.589FONDEUR ERIC56BELJOG'IN ATTITUDE1:54:121:54:127:17 8.25179ve21009182LIEGE
797.444VAN GENECHTEN SERGE55BELCEPAL1:52:591:54:197:17 8.24180ve21012192WATERLOO
798.2729THOMAS KENNY25BEL1:53:571:54:227:18 8.24303sen1013184
799.3780DUMAREY THIBAUT40BELPROVINCE DE NAMUR1:53:181:54:267:18 8.23236ve11014189SAINT-SERVAIS
DNF: abandon; DSQ: disqualifié; Vitesse en km/h
08/03/2021 - 04:29 - 881 Entrées
ChronoRace - Electronic Timing SPRL
http://www.chronorace.be

Page 17 / 18  
La Printanière
Par sexe
M
Erpent, 13/02/2016, BEL
Delhalle - 15.7km - Classement
15.7km 
Catégorie
PosNrNomAgeIOCLigueEquipeRéelTempsTkmMoy.RangNomScrPtsLocalité
800.2624YOUBI GERARD65BEL1:53:591:54:277:18 8.2360ve31015182ANHEE
801.2705BRUGGEMAN TIM21BEL1:53:401:54:287:18 8.23304sen1016185
802.2716SYMOENS WIM49BEL1:53:061:54:297:18 8.23237ve11017189
803.368VIAENE BERNARD71BELHERV1:53:091:54:357:18 8.2212ve41019188HERVE
804.2575OULUKOFF NAMJAL53BEL1:53:451:54:367:18 8.22181ve21021183
805.3563LAMBERS PHILIPPE55BELJAMES1:53:091:54:397:19 8.22182ve21022187
806.793DELEU GABRIEL65BELEPIDEMIE1:53:211:54:417:19 8.2161ve31023185REMICOURT
807.3142COLETTE VINCENT46BEL1:53:521:54:437:19 8.21238ve11025180TILLIER
808.2533DEMORTIER JONATHAN22BEL1:54:321:54:597:20 8.19305sen1028174
809.476MARIS WIM48BELJOGGANS1:54:241:55:097:21 8.18239ve11029175BRUSSELS
810.3970BORTOLOTTI EMMANUEL38BELTRAIL FOR FUN HUY1:54:001:55:137:21 8.18306sen1031178HUY
811.381BRICOULT DAVID53BELESM1:54:421:55:247:21 8.16183ve21035171MELLET
812.3149GODARD XAVIER38BEL1:54:141:55:477:23 8.14307sen1036174BRUXELLES
813.432VLAMINCK THIERRY46BEL1:55:241:55:517:23 8.13240ve11037165BRAINE LE CHÂTEAU
814.2741BAYET ETIENNE63BELARCH1:55:201:56:087:24 8.1162ve31040165
815.2534EVANS THOMAS22BEL1:55:421:56:097:24 8.11308sen1042161JAMBES
816.2596MEYTS THIERRY36BEL1:55:041:56:197:25 8.10309sen1043166CORROY-LE-CHÂTEAU
817.869GENOT YVES60BELENJAMBEE1:55:481:56:227:25 8.1063ve31044159KRAAINEM
818.3940CUVELIER LUC58BELTORTUES1:56:081:56:347:26 8.08184ve21045157BASSILLY
819.3030BODART ALAIN54BEL1:55:321:56:567:27 8.06185ve21049160ANGLEUR
820.3349SCHARPÉ CHARLES50BELJE COURS A INCOURT1:55:311:56:597:28 8.05186ve21052159JODOIGNE
821.3997VERHAMME ALEXANDRE51BEL1:55:541:57:107:28 8.04187ve21053156ANDENNE
822.3117MAUEN PATRICK43BELRUNNING FERNELMONT1:56:491:57:307:30 8.02241ve11057148HINGEON
823.2509BRODEN PHILIPPE49BELJC HSH1:57:041:57:367:30 8.01242ve11058145STRÉPY
824.2510RYADI AZEDDINE57BELJCHSH1:57:051:57:377:30 8.01188ve21059145
825.3385LUXEN REMI50BEL1:56:501:57:507:31 8.00189ve21060147EGHEZEE
826.3332HANSET THIERRY56BELJC RONVAU1:56:341:57:577:31 7.99190ve21061148AUDERGHEM
827.3854MAUBILLE BENOIT53BELJC RONVAU1:56:361:57:577:31 7.99191ve21062148DION VAL MONT
828.3031MASQUELIER OLIVIER40BELRRTCHATELET1:57:351:58:317:33 7.95243ve11066139WANFERCEE- BAULET
829.232MANFROID POL69BELJOGGANS1:57:431:58:587:35 7.9264ve31070137BRUXELLES
830.3521GILLES ALAIN68BEL1:58:011:59:167:36 7.9065ve31073134
831.527ARNOULD EDOUARD62BELENJAMBEE1:58:271:59:497:38 7.8666ve31075129WOLUWE ST LAMBERT
832.3552PIRON DAMIEN43BEL1:58:311:59:547:39 7.86244ve11076129
833.3318QUEVRIN OLIVIER46BELGAG GEMBLOUX1:58:512:00:067:39 7.84245ve11078126FRANIERE
834.2526VARVENNE ERIC52BEL1:58:552:00:157:40 7.83192ve21080124BRUXELLES
835.3148NOIRHOMME ERIC45BEL2:00:192:01:467:46 7.74246ve11084113SAR-T-BERNARD
836.2600VAN LAETHEM GUY53BELRIWA2:00:222:01:507:46 7.73193ve21085112
837.244FOURNIER LAURENT36BELJCCS2:01:572:02:097:47 7.71310sen108799GEDINNE
838.385BLOMMAERT EDWARD63BELAVN2:01:202:02:107:47 7.7167ve31088104TURNHOUT
839.3005VAILLANT ERIC40FRAFFAUS VALENCIENNES ATHL2:01:552:02:267:48 7.69247ve1109099MAING
840.2535EVANS JAMES18BEL2:02:212:02:487:50 7.679esp109295
841.3792HANKART GÉRARD50BEL2:02:112:03:147:51 7.64194ve2109595JAMBES
842.560DENIS MARCEL71BELRONVAU2:03:482:04:057:55 7.5913ve4109982
843.127GRANDMONT ANDRE55BELARCHARCH2:02:512:04:287:56 7.57195ve2110288DINANT
844.145GRANDMONT ANTONIN25BELARCHARCH2:02:572:04:307:56 7.57311sen110387DINANT
845.2656DE RIDDER JULIEN41BEL2:03:592:04:327:56 7.57248ve1110479BOUFFIOULX
846.3379DUCHENE HENRI56BELBAIL RUN2:04:382:04:387:57 7.56196ve2110773YVOIR
DNF: abandon; DSQ: disqualifié; Vitesse en km/h
08/03/2021 - 04:29 - 881 Entrées
ChronoRace - Electronic Timing SPRL
http://www.chronorace.be

Page 18 / 18  
La Printanière
Par sexe
M
Erpent, 13/02/2016, BEL
Delhalle - 15.7km - Classement
15.7km 
Catégorie
PosNrNomAgeIOCLigueEquipeRéelTempsTkmMoy.RangNomScrPtsLocalité
847.3512ROLAND JEAN-CLAUDE64BEL2:03:112:04:407:57 7.5668ve3110884
848.203ALBERT MICHEL55BELRCNAMUR2:04:312:05:348:00 7.50197ve2111572NAMÊCHE
849.2687MAUEN THIBAUT18BEL2:05:542:06:378:04 7.4410esp111761
850.59LIEGEOIS J.LOUIS64BELLAC2:05:562:07:218:07 7.4069ve3112060HEVERLEE
851.2538HENRY STEPHANE56BELJCCS2:06:382:07:308:08 7.39198ve2112154
852.3547CLARINVAL NICOLAS21BEL2:07:202:08:058:10 7.36312sen112349
853.3532DU FOUR JORAM26BEL2:07:222:08:068:10 7.35313sen112448
854.2653MUSELLE JONATHAN37BEL2:07:132:08:458:13 7.32314sen112549
855.459LEJEUNE CHRISTIAN67BEL16502:07:282:08:548:13 7.3170ve3112846VERVIERS
856.3879MELOTTE ARTHUR25BELRUNPRO2:09:092:09:388:16 7.27315sen113133PROFONDEVILLE
857.613SCHOEPS IVAN78BEL2:08:582:10:208:19 7.2314ve4113533BRAINE-LE-COMTE
858.418CUGNON MARC49BELJCPMF NASSOGNE2:10:222:11:268:23 7.17249ve1113822FORRIÈRES
859.3790MANTIA ROBERT80BEL2:11:152:11:318:23 7.1615ve4114016BOUGE
860.3791NR 3791 XXX2:11:172:11:328:23 7.163xxx114115
861.195GEUSKENS GEORGES82BELRUN AG PSOR2:12:272:13:268:30 7.0616ve411466BRUXELLES
862.448ROMAIN BERNARD59BEL2:14:192:15:258:38 6.96199ve211495CHASTRE
863.3231WARNAU YVES68BELRCBRCB2:10:572:15:598:40 6.9371ve3115015DROGENBOS
864.33GEORGES FRANÇOIS60BEL2:15:082:16:018:40 6.9372ve311514BRUXELLES
865.285MUYTJENS RENE71BELANTILOB2:15:172:16:118:41 6.9217ve411524OTTIGNIES
866.257LUKOJ-NAWEJ JIM64BEL2:16:402:16:408:43 6.8973ve311534BRUXELLES
867.3074COPPE STÉPHANE62BEL2:15:422:17:068:44 6.8774ve311543BRUXELLES.
868.2682DESTRES MICHAËL66BELJACO2:16:372:17:548:47 6.8375ve311553CHIMAY
869.2632BENNER PASCAL49BELLES PUISSANTS WALLONS2:19:542:20:298:57 6.71250ve111582NAMUR
870.718MAKINTOSH EDOUARD68BEL2:25:252:26:349:21 6.4376ve311611OVERIJSE
871.2512DISTRAIT TETE EN L'AIR51BEL2:26:122:27:369:25 6.38200ve211631
872.226RASQUIN RAYMOND88BELRCB2:44:172:45:3910:34 5.6918ve411641BRUXELLES
873.996DEKKERS DANIEL81BELSAHRAOUIS3:17:233:17:3812:36 4.7719ve411661LASNE
DNF2560CHAVATTE ROGER68BELACGve3
DNF2604DETHIER FREDERIC35BELsen
DNF2697EWBANK PATRICK37BELsenBAISY-THY
DNF4000FIERS SIMON29BELsenGRAND-LEEZ
DNF3510FOURNY MICHEL56BELANS EN FORMEve2ANS
DNF3982HASTIR OLIVIER40BELve1MOHIVILLE
DNF2681OBCHETTE CEDRIC29BELsen
DNF3973THIRY JEROME39BELsenMALONNE
DNF: abandon; DSQ: disqualifié; Vitesse en km/h
08/03/2021 - 04:29 - 881 Entrées
ChronoRace - Electronic Timing SPRL
http://www.chronorace.be

Page 19 / 18